<?xml version="1.0" encoding="UTF-8" standalone="no" ?>
<gpx xmlns="http://www.topografix.com/GPX/1/1" xmlns:xsi="http://www.w3.org/2001/XMLSchema-instance" xsi:schemaLocation="http://www.topografix.com/GPX/1/1 http://www.topografix.com/GPX/1/1/gpx.xsd" version="1.1" creator="VisuGPX - https://www.visugpx.com">
  <metadata>
    <name>2017-09-07-46-Pern</name>
    <desc><![CDATA[Randonnée de 10,4 km sans difficulté en deux boucles dans le quercy blanc]]></desc>
  </metadata>
  <trk>
    <name><![CDATA[pern 7 09 2017]]></name>
    <trkseg>
      <trkpt lat="44.32709" lon="1.39862">
        <ele>276.60547292603</ele>
        <time>2017-09-07T12:06:19Z</time>
      </trkpt>
      <trkpt lat="44.3271" lon="1.39852">
        <ele>276.13758188187</ele>
        <time>2017-09-07T12:06:27Z</time>
      </trkpt>
      <trkpt lat="44.32707" lon="1.39808">
        <ele>275.1908684035</ele>
        <time>2017-09-07T12:06:46Z</time>
      </trkpt>
      <trkpt lat="44.32707" lon="1.39805">
        <ele>275.22544102095</ele>
        <time>2017-09-07T12:06:47Z</time>
      </trkpt>
      <trkpt lat="44.32707" lon="1.39794">
        <ele>275.56063593915</ele>
        <time>2017-09-07T12:06:51Z</time>
      </trkpt>
      <trkpt lat="44.32707" lon="1.39781">
        <ele>275.45154414035</ele>
        <time>2017-09-07T12:06:55Z</time>
      </trkpt>
      <trkpt lat="44.32684" lon="1.3961">
        <ele>265.15377362314</ele>
        <time>2017-09-07T12:07:51Z</time>
      </trkpt>
      <trkpt lat="44.32685" lon="1.39601">
        <ele>264.99782694073</ele>
        <time>2017-09-07T12:07:56Z</time>
      </trkpt>
      <trkpt lat="44.32691" lon="1.39592">
        <ele>265.55178137483</ele>
        <time>2017-09-07T12:08:01Z</time>
      </trkpt>
      <trkpt lat="44.32696" lon="1.39584">
        <ele>267.70824594229</ele>
        <time>2017-09-07T12:08:07Z</time>
      </trkpt>
      <trkpt lat="44.32702" lon="1.39576">
        <ele>270.61867272778</ele>
        <time>2017-09-07T12:08:17Z</time>
      </trkpt>
      <trkpt lat="44.32702" lon="1.39573">
        <ele>270.93422564205</ele>
        <time>2017-09-07T12:08:18Z</time>
      </trkpt>
      <trkpt lat="44.32703" lon="1.39561">
        <ele>272.41143674208</ele>
        <time>2017-09-07T12:08:23Z</time>
      </trkpt>
      <trkpt lat="44.32703" lon="1.39558">
        <ele>272.67591187864</ele>
        <time>2017-09-07T12:08:24Z</time>
      </trkpt>
      <trkpt lat="44.32705" lon="1.39529">
        <ele>274.12306279672</ele>
        <time>2017-09-07T12:08:36Z</time>
      </trkpt>
      <trkpt lat="44.32714" lon="1.39538">
        <ele>275.03633293193</ele>
        <time>2017-09-07T12:08:41Z</time>
      </trkpt>
      <trkpt lat="44.3274" lon="1.39539">
        <ele>276.06451069544</ele>
        <time>2017-09-07T12:08:46Z</time>
      </trkpt>
      <trkpt lat="44.32746" lon="1.39537">
        <ele>277.15145001311</ele>
        <time>2017-09-07T12:08:49Z</time>
      </trkpt>
      <trkpt lat="44.32755" lon="1.39538">
        <ele>278.67550611512</ele>
        <time>2017-09-07T12:08:54Z</time>
      </trkpt>
      <trkpt lat="44.32763" lon="1.39538">
        <ele>281.16551470363</ele>
        <time>2017-09-07T12:09:01Z</time>
      </trkpt>
      <trkpt lat="44.32772" lon="1.39537">
        <ele>285.86397673755</ele>
        <time>2017-09-07T12:09:13Z</time>
      </trkpt>
      <trkpt lat="44.32777" lon="1.39527">
        <ele>288.9039275559</ele>
        <time>2017-09-07T12:09:22Z</time>
      </trkpt>
      <trkpt lat="44.32783" lon="1.39525">
        <ele>290.26298886024</ele>
        <time>2017-09-07T12:09:27Z</time>
      </trkpt>
      <trkpt lat="44.32791" lon="1.39524">
        <ele>290.87955569733</ele>
        <time>2017-09-07T12:09:34Z</time>
      </trkpt>
      <trkpt lat="44.32796" lon="1.39515">
        <ele>291.60275259342</ele>
        <time>2017-09-07T12:09:40Z</time>
      </trkpt>
      <trkpt lat="44.32801" lon="1.39505">
        <ele>291.76439314528</ele>
        <time>2017-09-07T12:09:44Z</time>
      </trkpt>
      <trkpt lat="44.32809" lon="1.39502">
        <ele>292.6695691564</ele>
        <time>2017-09-07T12:09:54Z</time>
      </trkpt>
      <trkpt lat="44.32818" lon="1.39503">
        <ele>293.26774973492</ele>
        <time>2017-09-07T12:10:00Z</time>
      </trkpt>
      <trkpt lat="44.32825" lon="1.39499">
        <ele>293.61010150855</ele>
        <time>2017-09-07T12:10:07Z</time>
      </trkpt>
      <trkpt lat="44.32833" lon="1.39496">
        <ele>293.63995419778</ele>
        <time>2017-09-07T12:10:13Z</time>
      </trkpt>
      <trkpt lat="44.32838" lon="1.39493">
        <ele>293.55612933636</ele>
        <time>2017-09-07T12:10:17Z</time>
      </trkpt>
      <trkpt lat="44.32846" lon="1.39489">
        <ele>293.51342523608</ele>
        <time>2017-09-07T12:10:22Z</time>
      </trkpt>
      <trkpt lat="44.32853" lon="1.39481">
        <ele>294.21444878452</ele>
        <time>2017-09-07T12:10:28Z</time>
      </trkpt>
      <trkpt lat="44.32857" lon="1.39477">
        <ele>294.62308540481</ele>
        <time>2017-09-07T12:10:34Z</time>
      </trkpt>
      <trkpt lat="44.32861" lon="1.39475">
        <ele>294.88366400295</ele>
        <time>2017-09-07T12:10:37Z</time>
      </trkpt>
      <trkpt lat="44.32866" lon="1.39473">
        <ele>295.04790016389</ele>
        <time>2017-09-07T12:10:40Z</time>
      </trkpt>
      <trkpt lat="44.32874" lon="1.39471">
        <ele>295.50482391346</ele>
        <time>2017-09-07T12:10:46Z</time>
      </trkpt>
      <trkpt lat="44.3288" lon="1.39472">
        <ele>296.73482892467</ele>
        <time>2017-09-07T12:10:53Z</time>
      </trkpt>
      <trkpt lat="44.32887" lon="1.39472">
        <ele>297.78336841619</ele>
        <time>2017-09-07T12:10:59Z</time>
      </trkpt>
      <trkpt lat="44.32895" lon="1.39469">
        <ele>297.93109382076</ele>
        <time>2017-09-07T12:11:06Z</time>
      </trkpt>
      <trkpt lat="44.32903" lon="1.39461">
        <ele>297.42163186289</ele>
        <time>2017-09-07T12:11:10Z</time>
      </trkpt>
      <trkpt lat="44.32915" lon="1.39445">
        <ele>296.34262016761</ele>
        <time>2017-09-07T12:11:15Z</time>
      </trkpt>
      <trkpt lat="44.32921" lon="1.39436">
        <ele>295.66603252496</ele>
        <time>2017-09-07T12:11:19Z</time>
      </trkpt>
      <trkpt lat="44.32928" lon="1.39426">
        <ele>294.73382880949</ele>
        <time>2017-09-07T12:11:24Z</time>
      </trkpt>
      <trkpt lat="44.32934" lon="1.39418">
        <ele>293.92433998314</ele>
        <time>2017-09-07T12:11:28Z</time>
      </trkpt>
      <trkpt lat="44.32941" lon="1.39411">
        <ele>293.71720593647</ele>
        <time>2017-09-07T12:11:32Z</time>
      </trkpt>
      <trkpt lat="44.32947" lon="1.39403">
        <ele>293.95168875166</ele>
        <time>2017-09-07T12:11:36Z</time>
      </trkpt>
      <trkpt lat="44.32952" lon="1.39399">
        <ele>293.90270902696</ele>
        <time>2017-09-07T12:11:39Z</time>
      </trkpt>
      <trkpt lat="44.3296" lon="1.39392">
        <ele>293.37457762502</ele>
        <time>2017-09-07T12:11:54Z</time>
      </trkpt>
      <trkpt lat="44.32963" lon="1.3939">
        <ele>292.92175448514</ele>
        <time>2017-09-07T12:11:58Z</time>
      </trkpt>
      <trkpt lat="44.3297" lon="1.39385">
        <ele>292.2422700195</ele>
        <time>2017-09-07T12:12:05Z</time>
      </trkpt>
      <trkpt lat="44.32977" lon="1.39385">
        <ele>291.39953168313</ele>
        <time>2017-09-07T12:12:14Z</time>
      </trkpt>
      <trkpt lat="44.32985" lon="1.39386">
        <ele>291.6919609146</ele>
        <time>2017-09-07T12:12:21Z</time>
      </trkpt>
      <trkpt lat="44.32993" lon="1.39389">
        <ele>294.24274226291</ele>
        <time>2017-09-07T12:12:31Z</time>
      </trkpt>
      <trkpt lat="44.33" lon="1.39388">
        <ele>295.79840167117</ele>
        <time>2017-09-07T12:12:37Z</time>
      </trkpt>
      <trkpt lat="44.33036" lon="1.3937">
        <ele>295.10404732197</ele>
        <time>2017-09-07T12:13:05Z</time>
      </trkpt>
      <trkpt lat="44.33039" lon="1.3937">
        <ele>294.91140527719</ele>
        <time>2017-09-07T12:13:07Z</time>
      </trkpt>
      <trkpt lat="44.33054" lon="1.39365">
        <ele>295.44388185804</ele>
        <time>2017-09-07T12:13:17Z</time>
      </trkpt>
      <trkpt lat="44.33061" lon="1.39363">
        <ele>295.61830884829</ele>
        <time>2017-09-07T12:13:23Z</time>
      </trkpt>
      <trkpt lat="44.33069" lon="1.39358">
        <ele>295.9761516973</ele>
        <time>2017-09-07T12:13:28Z</time>
      </trkpt>
      <trkpt lat="44.33077" lon="1.39353">
        <ele>296.30409039777</ele>
        <time>2017-09-07T12:13:33Z</time>
      </trkpt>
      <trkpt lat="44.33083" lon="1.39347">
        <ele>297.25254076312</ele>
        <time>2017-09-07T12:13:39Z</time>
      </trkpt>
      <trkpt lat="44.33089" lon="1.39343">
        <ele>297.65143303544</ele>
        <time>2017-09-07T12:13:43Z</time>
      </trkpt>
      <trkpt lat="44.33103" lon="1.39335">
        <ele>297.51944048535</ele>
        <time>2017-09-07T12:13:54Z</time>
      </trkpt>
      <trkpt lat="44.3311" lon="1.39332">
        <ele>297.65073618858</ele>
        <time>2017-09-07T12:13:59Z</time>
      </trkpt>
      <trkpt lat="44.33119" lon="1.39331">
        <ele>297.38897603792</ele>
        <time>2017-09-07T12:14:04Z</time>
      </trkpt>
      <trkpt lat="44.33125" lon="1.39331">
        <ele>297.1389956131</ele>
        <time>2017-09-07T12:14:08Z</time>
      </trkpt>
      <trkpt lat="44.33134" lon="1.39333">
        <ele>296.4809866724</ele>
        <time>2017-09-07T12:14:14Z</time>
      </trkpt>
      <trkpt lat="44.3314" lon="1.39341">
        <ele>295.96104069561</ele>
        <time>2017-09-07T12:14:23Z</time>
      </trkpt>
      <trkpt lat="44.33141" lon="1.39348">
        <ele>295.91317229246</ele>
        <time>2017-09-07T12:14:26Z</time>
      </trkpt>
      <trkpt lat="44.33148" lon="1.39367">
        <ele>297.53657942653</ele>
        <time>2017-09-07T12:14:36Z</time>
      </trkpt>
      <trkpt lat="44.33146" lon="1.39359">
        <ele>298.04618406699</ele>
        <time>2017-09-07T12:14:49Z</time>
      </trkpt>
      <trkpt lat="44.33145" lon="1.39345">
        <ele>296.49535522351</ele>
        <time>2017-09-07T12:14:54Z</time>
      </trkpt>
      <trkpt lat="44.33147" lon="1.39344">
        <ele>296.1279247135</ele>
        <time>2017-09-07T12:14:56Z</time>
      </trkpt>
      <trkpt lat="44.33156" lon="1.39344">
        <ele>296.03208258986</ele>
        <time>2017-09-07T12:15:06Z</time>
      </trkpt>
      <trkpt lat="44.33163" lon="1.39345">
        <ele>296.79065239456</ele>
        <time>2017-09-07T12:15:15Z</time>
      </trkpt>
      <trkpt lat="44.33168" lon="1.3934">
        <ele>296.45451666134</ele>
        <time>2017-09-07T12:15:20Z</time>
      </trkpt>
      <trkpt lat="44.33178" lon="1.39337">
        <ele>295.79437682886</ele>
        <time>2017-09-07T12:15:25Z</time>
      </trkpt>
      <trkpt lat="44.33193" lon="1.39336">
        <ele>295.71889278391</ele>
        <time>2017-09-07T12:15:30Z</time>
      </trkpt>
      <trkpt lat="44.33215" lon="1.39331">
        <ele>296.58834250898</ele>
        <time>2017-09-07T12:15:39Z</time>
      </trkpt>
      <trkpt lat="44.33223" lon="1.39332">
        <ele>296.62858739005</ele>
        <time>2017-09-07T12:15:44Z</time>
      </trkpt>
      <trkpt lat="44.33232" lon="1.39334">
        <ele>296.4112013763</ele>
        <time>2017-09-07T12:15:53Z</time>
      </trkpt>
      <trkpt lat="44.3324" lon="1.39335">
        <ele>296.58003568886</ele>
        <time>2017-09-07T12:15:59Z</time>
      </trkpt>
      <trkpt lat="44.33247" lon="1.39338">
        <ele>297.13648545484</ele>
        <time>2017-09-07T12:16:05Z</time>
      </trkpt>
      <trkpt lat="44.33256" lon="1.39337">
        <ele>298.07174419076</ele>
        <time>2017-09-07T12:16:12Z</time>
      </trkpt>
      <trkpt lat="44.3326" lon="1.39339">
        <ele>298.84835997601</ele>
        <time>2017-09-07T12:16:17Z</time>
      </trkpt>
      <trkpt lat="44.33267" lon="1.39343">
        <ele>299.15517757006</ele>
        <time>2017-09-07T12:16:23Z</time>
      </trkpt>
      <trkpt lat="44.33276" lon="1.39345">
        <ele>299.22635594694</ele>
        <time>2017-09-07T12:16:29Z</time>
      </trkpt>
      <trkpt lat="44.3328" lon="1.39345">
        <ele>299.06679724786</ele>
        <time>2017-09-07T12:16:31Z</time>
      </trkpt>
      <trkpt lat="44.33294" lon="1.39335">
        <ele>298.70057045111</ele>
        <time>2017-09-07T12:16:38Z</time>
      </trkpt>
      <trkpt lat="44.333" lon="1.39328">
        <ele>298.53864970796</ele>
        <time>2017-09-07T12:16:43Z</time>
      </trkpt>
      <trkpt lat="44.33302" lon="1.39326">
        <ele>298.16841413505</ele>
        <time>2017-09-07T12:16:45Z</time>
      </trkpt>
      <trkpt lat="44.33307" lon="1.39319">
        <ele>297.42669210068</ele>
        <time>2017-09-07T12:16:52Z</time>
      </trkpt>
      <trkpt lat="44.33315" lon="1.39313">
        <ele>296.47887454364</ele>
        <time>2017-09-07T12:17:02Z</time>
      </trkpt>
      <trkpt lat="44.33326" lon="1.39308">
        <ele>294.51067875065</ele>
        <time>2017-09-07T12:17:12Z</time>
      </trkpt>
      <trkpt lat="44.33334" lon="1.39304">
        <ele>293.7477584166</ele>
        <time>2017-09-07T12:17:20Z</time>
      </trkpt>
      <trkpt lat="44.33341" lon="1.39297">
        <ele>293.89473003257</ele>
        <time>2017-09-07T12:17:26Z</time>
      </trkpt>
      <trkpt lat="44.33347" lon="1.39291">
        <ele>293.84042033192</ele>
        <time>2017-09-07T12:17:30Z</time>
      </trkpt>
      <trkpt lat="44.33354" lon="1.39299">
        <ele>293.7615727371</ele>
        <time>2017-09-07T12:17:46Z</time>
      </trkpt>
      <trkpt lat="44.33352" lon="1.39298">
        <ele>296.36095633836</ele>
        <time>2017-09-07T12:17:57Z</time>
      </trkpt>
      <trkpt lat="44.3335" lon="1.39276">
        <ele>296.76204433949</ele>
        <time>2017-09-07T12:18:04Z</time>
      </trkpt>
      <trkpt lat="44.33355" lon="1.39266">
        <ele>298.41614659904</ele>
        <time>2017-09-07T12:18:19Z</time>
      </trkpt>
      <trkpt lat="44.33363" lon="1.39261">
        <ele>298.07103289204</ele>
        <time>2017-09-07T12:18:28Z</time>
      </trkpt>
      <trkpt lat="44.33367" lon="1.39251">
        <ele>297.35891391208</ele>
        <time>2017-09-07T12:18:34Z</time>
      </trkpt>
      <trkpt lat="44.33371" lon="1.39241">
        <ele>297.10590840666</ele>
        <time>2017-09-07T12:18:39Z</time>
      </trkpt>
      <trkpt lat="44.33377" lon="1.39232">
        <ele>296.57373864377</ele>
        <time>2017-09-07T12:18:48Z</time>
      </trkpt>
      <trkpt lat="44.33377" lon="1.3922">
        <ele>295.59848878425</ele>
        <time>2017-09-07T12:19:03Z</time>
      </trkpt>
      <trkpt lat="44.33379" lon="1.39209">
        <ele>295.98143221477</ele>
        <time>2017-09-07T12:19:24Z</time>
      </trkpt>
      <trkpt lat="44.33387" lon="1.39194">
        <ele>295.9924417046</ele>
        <time>2017-09-07T12:19:29Z</time>
      </trkpt>
      <trkpt lat="44.33398" lon="1.39182">
        <ele>296.0489665998</ele>
        <time>2017-09-07T12:19:33Z</time>
      </trkpt>
      <trkpt lat="44.33405" lon="1.39174">
        <ele>295.69523149766</ele>
        <time>2017-09-07T12:19:37Z</time>
      </trkpt>
      <trkpt lat="44.33412" lon="1.39168">
        <ele>295.28583227679</ele>
        <time>2017-09-07T12:19:42Z</time>
      </trkpt>
      <trkpt lat="44.33419" lon="1.39164">
        <ele>295.6533639416</ele>
        <time>2017-09-07T12:19:49Z</time>
      </trkpt>
      <trkpt lat="44.33421" lon="1.39165">
        <ele>295.95560087199</ele>
        <time>2017-09-07T12:19:50Z</time>
      </trkpt>
      <trkpt lat="44.33429" lon="1.39162">
        <ele>297.34556110778</ele>
        <time>2017-09-07T12:19:57Z</time>
      </trkpt>
      <trkpt lat="44.33434" lon="1.39159">
        <ele>297.39572987233</ele>
        <time>2017-09-07T12:19:59Z</time>
      </trkpt>
      <trkpt lat="44.33448" lon="1.39162">
        <ele>297.23560572189</ele>
        <time>2017-09-07T12:20:03Z</time>
      </trkpt>
      <trkpt lat="44.33461" lon="1.39155">
        <ele>297.75261701007</ele>
        <time>2017-09-07T12:20:08Z</time>
      </trkpt>
      <trkpt lat="44.33469" lon="1.39153">
        <ele>297.81356234775</ele>
        <time>2017-09-07T12:20:11Z</time>
      </trkpt>
      <trkpt lat="44.33477" lon="1.3915">
        <ele>297.71225027965</ele>
        <time>2017-09-07T12:20:17Z</time>
      </trkpt>
      <trkpt lat="44.33483" lon="1.39144">
        <ele>298.92807672094</ele>
        <time>2017-09-07T12:20:26Z</time>
      </trkpt>
      <trkpt lat="44.33487" lon="1.39144">
        <ele>299.34719352608</ele>
        <time>2017-09-07T12:20:30Z</time>
      </trkpt>
      <trkpt lat="44.33499" lon="1.39141">
        <ele>300.03265938615</ele>
        <time>2017-09-07T12:20:46Z</time>
      </trkpt>
      <trkpt lat="44.33508" lon="1.39141">
        <ele>299.37243120672</ele>
        <time>2017-09-07T12:20:55Z</time>
      </trkpt>
      <trkpt lat="44.33513" lon="1.39141">
        <ele>299.00454929179</ele>
        <time>2017-09-07T12:20:59Z</time>
      </trkpt>
      <trkpt lat="44.3352" lon="1.39141">
        <ele>298.47872590116</ele>
        <time>2017-09-07T12:21:03Z</time>
      </trkpt>
      <trkpt lat="44.33528" lon="1.3914">
        <ele>297.88875703679</ele>
        <time>2017-09-07T12:21:07Z</time>
      </trkpt>
      <trkpt lat="44.33544" lon="1.3915">
        <ele>297.31520651835</ele>
        <time>2017-09-07T12:21:11Z</time>
      </trkpt>
      <trkpt lat="44.33553" lon="1.39157">
        <ele>296.6020977282</ele>
        <time>2017-09-07T12:21:15Z</time>
      </trkpt>
      <trkpt lat="44.33593" lon="1.39191">
        <ele>295.46179969054</ele>
        <time>2017-09-07T12:21:36Z</time>
      </trkpt>
      <trkpt lat="44.33602" lon="1.39195">
        <ele>296.0745673797</ele>
        <time>2017-09-07T12:21:44Z</time>
      </trkpt>
      <trkpt lat="44.3361" lon="1.392">
        <ele>292.2589224119</ele>
        <time>2017-09-07T12:22:20Z</time>
      </trkpt>
      <trkpt lat="44.33617" lon="1.39203">
        <ele>291.59562478344</ele>
        <time>2017-09-07T12:22:28Z</time>
      </trkpt>
      <trkpt lat="44.3362" lon="1.39202">
        <ele>291.31874874397</ele>
        <time>2017-09-07T12:22:30Z</time>
      </trkpt>
      <trkpt lat="44.33628" lon="1.39201">
        <ele>290.84277768919</ele>
        <time>2017-09-07T12:22:35Z</time>
      </trkpt>
      <trkpt lat="44.33636" lon="1.39203">
        <ele>290.95107486634</ele>
        <time>2017-09-07T12:22:41Z</time>
      </trkpt>
      <trkpt lat="44.33643" lon="1.39205">
        <ele>290.76169102165</ele>
        <time>2017-09-07T12:22:48Z</time>
      </trkpt>
      <trkpt lat="44.33737" lon="1.39337">
        <ele>299.41838973648</ele>
        <time>2017-09-07T12:24:09Z</time>
      </trkpt>
      <trkpt lat="44.33732" lon="1.39343">
        <ele>314.39787510368</ele>
        <time>2017-09-07T12:24:29Z</time>
      </trkpt>
      <trkpt lat="44.33727" lon="1.39343">
        <ele>299.44467334445</ele>
        <time>2017-09-07T12:24:43Z</time>
      </trkpt>
      <trkpt lat="44.33732" lon="1.39354">
        <ele>303.10689204237</ele>
        <time>2017-09-07T12:24:45Z</time>
      </trkpt>
      <trkpt lat="44.33732" lon="1.39359">
        <ele>303.90188179802</ele>
        <time>2017-09-07T12:25:01Z</time>
      </trkpt>
      <trkpt lat="44.33735" lon="1.39367">
        <ele>303.17392156714</ele>
        <time>2017-09-07T12:25:12Z</time>
      </trkpt>
      <trkpt lat="44.33738" lon="1.39383">
        <ele>303.11266358597</ele>
        <time>2017-09-07T12:25:16Z</time>
      </trkpt>
      <trkpt lat="44.33742" lon="1.39391">
        <ele>302.61677928973</ele>
        <time>2017-09-07T12:25:21Z</time>
      </trkpt>
      <trkpt lat="44.33748" lon="1.39399">
        <ele>301.51152897572</ele>
        <time>2017-09-07T12:25:29Z</time>
      </trkpt>
      <trkpt lat="44.33751" lon="1.3941">
        <ele>300.04074268676</ele>
        <time>2017-09-07T12:25:37Z</time>
      </trkpt>
      <trkpt lat="44.33753" lon="1.39421">
        <ele>297.35815040039</ele>
        <time>2017-09-07T12:25:46Z</time>
      </trkpt>
      <trkpt lat="44.33757" lon="1.39428">
        <ele>294.89780324767</ele>
        <time>2017-09-07T12:25:54Z</time>
      </trkpt>
      <trkpt lat="44.33771" lon="1.39426">
        <ele>293.25386383465</ele>
        <time>2017-09-07T12:25:59Z</time>
      </trkpt>
      <trkpt lat="44.33778" lon="1.39431">
        <ele>291.30813063568</ele>
        <time>2017-09-07T12:26:05Z</time>
      </trkpt>
      <trkpt lat="44.33784" lon="1.39441">
        <ele>290.06733303554</ele>
        <time>2017-09-07T12:26:10Z</time>
      </trkpt>
      <trkpt lat="44.33787" lon="1.39454">
        <ele>289.03464755576</ele>
        <time>2017-09-07T12:26:15Z</time>
      </trkpt>
      <trkpt lat="44.33792" lon="1.39463">
        <ele>287.04722954195</ele>
        <time>2017-09-07T12:26:22Z</time>
      </trkpt>
      <trkpt lat="44.33798" lon="1.39468">
        <ele>284.68661459211</ele>
        <time>2017-09-07T12:26:28Z</time>
      </trkpt>
      <trkpt lat="44.33801" lon="1.39473">
        <ele>283.76681511958</ele>
        <time>2017-09-07T12:26:31Z</time>
      </trkpt>
      <trkpt lat="44.33806" lon="1.39482">
        <ele>281.91282461161</ele>
        <time>2017-09-07T12:26:37Z</time>
      </trkpt>
      <trkpt lat="44.33805" lon="1.39493">
        <ele>280.37369480021</ele>
        <time>2017-09-07T12:26:44Z</time>
      </trkpt>
      <trkpt lat="44.338" lon="1.39501">
        <ele>280.501560523</ele>
        <time>2017-09-07T12:26:48Z</time>
      </trkpt>
      <trkpt lat="44.33796" lon="1.39512">
        <ele>281.46981569768</ele>
        <time>2017-09-07T12:26:53Z</time>
      </trkpt>
      <trkpt lat="44.33793" lon="1.39523">
        <ele>282.142039319</ele>
        <time>2017-09-07T12:26:59Z</time>
      </trkpt>
      <trkpt lat="44.33792" lon="1.39535">
        <ele>282.88539759022</ele>
        <time>2017-09-07T12:27:06Z</time>
      </trkpt>
      <trkpt lat="44.33793" lon="1.39547">
        <ele>284.77793215685</ele>
        <time>2017-09-07T12:27:18Z</time>
      </trkpt>
      <trkpt lat="44.33793" lon="1.39557">
        <ele>285.8156673847</ele>
        <time>2017-09-07T12:27:27Z</time>
      </trkpt>
      <trkpt lat="44.33791" lon="1.39569">
        <ele>286.61052496274</ele>
        <time>2017-09-07T12:27:33Z</time>
      </trkpt>
      <trkpt lat="44.33792" lon="1.39578">
        <ele>287.42314124591</ele>
        <time>2017-09-07T12:27:41Z</time>
      </trkpt>
      <trkpt lat="44.33794" lon="1.3959">
        <ele>289.03975747334</ele>
        <time>2017-09-07T12:27:50Z</time>
      </trkpt>
      <trkpt lat="44.33797" lon="1.39601">
        <ele>289.82239773156</ele>
        <time>2017-09-07T12:28:02Z</time>
      </trkpt>
      <trkpt lat="44.33797" lon="1.39612">
        <ele>290.16731320712</ele>
        <time>2017-09-07T12:28:08Z</time>
      </trkpt>
      <trkpt lat="44.33798" lon="1.39623">
        <ele>290.9816400783</ele>
        <time>2017-09-07T12:28:17Z</time>
      </trkpt>
      <trkpt lat="44.33797" lon="1.39636">
        <ele>291.34839685834</ele>
        <time>2017-09-07T12:28:25Z</time>
      </trkpt>
      <trkpt lat="44.33792" lon="1.39645">
        <ele>291.60228051974</ele>
        <time>2017-09-07T12:28:34Z</time>
      </trkpt>
      <trkpt lat="44.3379" lon="1.39657">
        <ele>291.78802923997</ele>
        <time>2017-09-07T12:28:44Z</time>
      </trkpt>
      <trkpt lat="44.33791" lon="1.39668">
        <ele>292.2859412416</ele>
        <time>2017-09-07T12:28:52Z</time>
      </trkpt>
      <trkpt lat="44.33787" lon="1.39679">
        <ele>292.04163140974</ele>
        <time>2017-09-07T12:29:01Z</time>
      </trkpt>
      <trkpt lat="44.3378" lon="1.39686">
        <ele>291.930575953</ele>
        <time>2017-09-07T12:29:08Z</time>
      </trkpt>
      <trkpt lat="44.33774" lon="1.39695">
        <ele>291.30314960408</ele>
        <time>2017-09-07T12:29:17Z</time>
      </trkpt>
      <trkpt lat="44.33768" lon="1.39703">
        <ele>290.51589347685</ele>
        <time>2017-09-07T12:29:25Z</time>
      </trkpt>
      <trkpt lat="44.33761" lon="1.39707">
        <ele>290.38168651677</ele>
        <time>2017-09-07T12:29:34Z</time>
      </trkpt>
      <trkpt lat="44.33754" lon="1.39711">
        <ele>290.41474823989</ele>
        <time>2017-09-07T12:29:39Z</time>
      </trkpt>
      <trkpt lat="44.33747" lon="1.39716">
        <ele>290.09142734686</ele>
        <time>2017-09-07T12:29:44Z</time>
      </trkpt>
      <trkpt lat="44.3374" lon="1.39722">
        <ele>290.01264057693</ele>
        <time>2017-09-07T12:29:51Z</time>
      </trkpt>
      <trkpt lat="44.33734" lon="1.39728">
        <ele>289.80924839294</ele>
        <time>2017-09-07T12:29:58Z</time>
      </trkpt>
      <trkpt lat="44.33728" lon="1.39735">
        <ele>289.72648607552</ele>
        <time>2017-09-07T12:30:03Z</time>
      </trkpt>
      <trkpt lat="44.33721" lon="1.39741">
        <ele>289.89739113641</ele>
        <time>2017-09-07T12:30:10Z</time>
      </trkpt>
      <trkpt lat="44.33714" lon="1.39746">
        <ele>289.47797320438</ele>
        <time>2017-09-07T12:30:16Z</time>
      </trkpt>
      <trkpt lat="44.33708" lon="1.39754">
        <ele>289.04857521119</ele>
        <time>2017-09-07T12:30:22Z</time>
      </trkpt>
      <trkpt lat="44.33701" lon="1.3976">
        <ele>288.91256026478</ele>
        <time>2017-09-07T12:30:29Z</time>
      </trkpt>
      <trkpt lat="44.33695" lon="1.39768">
        <ele>288.12008308038</ele>
        <time>2017-09-07T12:30:36Z</time>
      </trkpt>
      <trkpt lat="44.33687" lon="1.3977">
        <ele>287.19004820647</ele>
        <time>2017-09-07T12:30:42Z</time>
      </trkpt>
      <trkpt lat="44.3368" lon="1.39773">
        <ele>286.40900269053</ele>
        <time>2017-09-07T12:30:47Z</time>
      </trkpt>
      <trkpt lat="44.33672" lon="1.39777">
        <ele>285.82168805344</ele>
        <time>2017-09-07T12:30:53Z</time>
      </trkpt>
      <trkpt lat="44.33664" lon="1.39782">
        <ele>285.78297643549</ele>
        <time>2017-09-07T12:31:00Z</time>
      </trkpt>
      <trkpt lat="44.33656" lon="1.39787">
        <ele>285.5963524254</ele>
        <time>2017-09-07T12:31:06Z</time>
      </trkpt>
      <trkpt lat="44.33649" lon="1.39793">
        <ele>284.95070842301</ele>
        <time>2017-09-07T12:31:13Z</time>
      </trkpt>
      <trkpt lat="44.33641" lon="1.39798">
        <ele>283.94454331349</ele>
        <time>2017-09-07T12:31:20Z</time>
      </trkpt>
      <trkpt lat="44.33633" lon="1.39802">
        <ele>283.47199797723</ele>
        <time>2017-09-07T12:31:26Z</time>
      </trkpt>
      <trkpt lat="44.33625" lon="1.39807">
        <ele>283.18287062998</ele>
        <time>2017-09-07T12:31:33Z</time>
      </trkpt>
      <trkpt lat="44.33619" lon="1.39815">
        <ele>283.11587026282</ele>
        <time>2017-09-07T12:31:41Z</time>
      </trkpt>
      <trkpt lat="44.33619" lon="1.39828">
        <ele>282.79302145345</ele>
        <time>2017-09-07T12:31:48Z</time>
      </trkpt>
      <trkpt lat="44.33622" lon="1.39838">
        <ele>282.22168479021</ele>
        <time>2017-09-07T12:31:55Z</time>
      </trkpt>
      <trkpt lat="44.33627" lon="1.39849">
        <ele>281.41047704263</ele>
        <time>2017-09-07T12:32:04Z</time>
      </trkpt>
      <trkpt lat="44.33629" lon="1.39861">
        <ele>280.79252160279</ele>
        <time>2017-09-07T12:32:11Z</time>
      </trkpt>
      <trkpt lat="44.33632" lon="1.39872">
        <ele>280.1455395262</ele>
        <time>2017-09-07T12:32:20Z</time>
      </trkpt>
      <trkpt lat="44.33635" lon="1.39883">
        <ele>279.59166141979</ele>
        <time>2017-09-07T12:32:26Z</time>
      </trkpt>
      <trkpt lat="44.33637" lon="1.39894">
        <ele>278.80807367848</ele>
        <time>2017-09-07T12:32:34Z</time>
      </trkpt>
      <trkpt lat="44.33639" lon="1.39905">
        <ele>278.06757597744</ele>
        <time>2017-09-07T12:32:42Z</time>
      </trkpt>
      <trkpt lat="44.3364" lon="1.39917">
        <ele>277.6927247296</ele>
        <time>2017-09-07T12:32:50Z</time>
      </trkpt>
      <trkpt lat="44.33643" lon="1.39928">
        <ele>277.14751452592</ele>
        <time>2017-09-07T12:32:58Z</time>
      </trkpt>
      <trkpt lat="44.33648" lon="1.39938">
        <ele>276.83527285642</ele>
        <time>2017-09-07T12:33:05Z</time>
      </trkpt>
      <trkpt lat="44.33653" lon="1.39948">
        <ele>276.55504432784</ele>
        <time>2017-09-07T12:33:13Z</time>
      </trkpt>
      <trkpt lat="44.33658" lon="1.39957">
        <ele>276.54469920478</ele>
        <time>2017-09-07T12:33:20Z</time>
      </trkpt>
      <trkpt lat="44.33663" lon="1.39966">
        <ele>276.448613615</ele>
        <time>2017-09-07T12:33:27Z</time>
      </trkpt>
      <trkpt lat="44.33667" lon="1.39976">
        <ele>276.08220278467</ele>
        <time>2017-09-07T12:33:34Z</time>
      </trkpt>
      <trkpt lat="44.33673" lon="1.39985">
        <ele>275.88365025725</ele>
        <time>2017-09-07T12:33:42Z</time>
      </trkpt>
      <trkpt lat="44.33678" lon="1.39993">
        <ele>275.60032097668</ele>
        <time>2017-09-07T12:33:48Z</time>
      </trkpt>
      <trkpt lat="44.33682" lon="1.40003">
        <ele>275.40127153442</ele>
        <time>2017-09-07T12:33:55Z</time>
      </trkpt>
      <trkpt lat="44.33686" lon="1.40013">
        <ele>275.62452910074</ele>
        <time>2017-09-07T12:34:03Z</time>
      </trkpt>
      <trkpt lat="44.33686" lon="1.40025">
        <ele>275.76617190649</ele>
        <time>2017-09-07T12:34:12Z</time>
      </trkpt>
      <trkpt lat="44.33685" lon="1.40037">
        <ele>275.86652327615</ele>
        <time>2017-09-07T12:34:19Z</time>
      </trkpt>
      <trkpt lat="44.33684" lon="1.40049">
        <ele>276.21491241463</ele>
        <time>2017-09-07T12:34:27Z</time>
      </trkpt>
      <trkpt lat="44.33683" lon="1.40061">
        <ele>276.49132668914</ele>
        <time>2017-09-07T12:34:35Z</time>
      </trkpt>
      <trkpt lat="44.33683" lon="1.40073">
        <ele>276.62109457194</ele>
        <time>2017-09-07T12:34:41Z</time>
      </trkpt>
      <trkpt lat="44.33685" lon="1.40085">
        <ele>276.79454031971</ele>
        <time>2017-09-07T12:34:50Z</time>
      </trkpt>
      <trkpt lat="44.33686" lon="1.40096">
        <ele>276.57126275092</ele>
        <time>2017-09-07T12:34:58Z</time>
      </trkpt>
      <trkpt lat="44.33687" lon="1.40109">
        <ele>276.84247653897</ele>
        <time>2017-09-07T12:35:04Z</time>
      </trkpt>
      <trkpt lat="44.33688" lon="1.4012">
        <ele>277.22111996811</ele>
        <time>2017-09-07T12:35:12Z</time>
      </trkpt>
      <trkpt lat="44.3369" lon="1.4013">
        <ele>277.59792043952</ele>
        <time>2017-09-07T12:35:19Z</time>
      </trkpt>
      <trkpt lat="44.33693" lon="1.40142">
        <ele>278.0059914522</ele>
        <time>2017-09-07T12:35:26Z</time>
      </trkpt>
      <trkpt lat="44.33696" lon="1.40153">
        <ele>278.68538269479</ele>
        <time>2017-09-07T12:35:35Z</time>
      </trkpt>
      <trkpt lat="44.33696" lon="1.40165">
        <ele>278.38173163256</ele>
        <time>2017-09-07T12:35:44Z</time>
      </trkpt>
      <trkpt lat="44.33697" lon="1.40176">
        <ele>277.92158959867</ele>
        <time>2017-09-07T12:35:51Z</time>
      </trkpt>
      <trkpt lat="44.33698" lon="1.40188">
        <ele>277.78493855629</ele>
        <time>2017-09-07T12:35:57Z</time>
      </trkpt>
      <trkpt lat="44.33698" lon="1.402">
        <ele>277.6955079977</ele>
        <time>2017-09-07T12:36:03Z</time>
      </trkpt>
      <trkpt lat="44.33697" lon="1.40211">
        <ele>277.40595911611</ele>
        <time>2017-09-07T12:36:11Z</time>
      </trkpt>
      <trkpt lat="44.33695" lon="1.40222">
        <ele>277.25384813556</ele>
        <time>2017-09-07T12:36:19Z</time>
      </trkpt>
      <trkpt lat="44.33694" lon="1.40234">
        <ele>276.85268245971</ele>
        <time>2017-09-07T12:36:25Z</time>
      </trkpt>
      <trkpt lat="44.33692" lon="1.40245">
        <ele>276.35590149513</ele>
        <time>2017-09-07T12:36:33Z</time>
      </trkpt>
      <trkpt lat="44.33689" lon="1.40254">
        <ele>275.94983578418</ele>
        <time>2017-09-07T12:36:40Z</time>
      </trkpt>
      <trkpt lat="44.33686" lon="1.40266">
        <ele>275.49346402108</ele>
        <time>2017-09-07T12:36:48Z</time>
      </trkpt>
      <trkpt lat="44.33684" lon="1.40277">
        <ele>275.14604093533</ele>
        <time>2017-09-07T12:36:55Z</time>
      </trkpt>
      <trkpt lat="44.33679" lon="1.40288">
        <ele>274.8618398827</ele>
        <time>2017-09-07T12:37:02Z</time>
      </trkpt>
      <trkpt lat="44.33677" lon="1.403">
        <ele>274.49510043078</ele>
        <time>2017-09-07T12:37:09Z</time>
      </trkpt>
      <trkpt lat="44.33675" lon="1.40311">
        <ele>274.08375899575</ele>
        <time>2017-09-07T12:37:15Z</time>
      </trkpt>
      <trkpt lat="44.33675" lon="1.40323">
        <ele>273.72492897039</ele>
        <time>2017-09-07T12:37:23Z</time>
      </trkpt>
      <trkpt lat="44.33674" lon="1.40334">
        <ele>273.63923286934</ele>
        <time>2017-09-07T12:37:31Z</time>
      </trkpt>
      <trkpt lat="44.33678" lon="1.40345">
        <ele>272.84764605473</ele>
        <time>2017-09-07T12:37:39Z</time>
      </trkpt>
      <trkpt lat="44.33684" lon="1.40353">
        <ele>271.96939569886</ele>
        <time>2017-09-07T12:37:47Z</time>
      </trkpt>
      <trkpt lat="44.33692" lon="1.40356">
        <ele>270.9945877047</ele>
        <time>2017-09-07T12:37:55Z</time>
      </trkpt>
      <trkpt lat="44.337" lon="1.40361">
        <ele>270.85431481999</ele>
        <time>2017-09-07T12:38:02Z</time>
      </trkpt>
      <trkpt lat="44.33708" lon="1.40364">
        <ele>270.70293997017</ele>
        <time>2017-09-07T12:38:11Z</time>
      </trkpt>
      <trkpt lat="44.33716" lon="1.4037">
        <ele>270.08093686539</ele>
        <time>2017-09-07T12:38:17Z</time>
      </trkpt>
      <trkpt lat="44.33722" lon="1.40379">
        <ele>269.3526070265</ele>
        <time>2017-09-07T12:38:26Z</time>
      </trkpt>
      <trkpt lat="44.33726" lon="1.40389">
        <ele>268.50530548074</ele>
        <time>2017-09-07T12:38:33Z</time>
      </trkpt>
      <trkpt lat="44.33728" lon="1.404">
        <ele>267.87852079935</ele>
        <time>2017-09-07T12:38:41Z</time>
      </trkpt>
      <trkpt lat="44.33728" lon="1.40412">
        <ele>267.65531681983</ele>
        <time>2017-09-07T12:38:48Z</time>
      </trkpt>
      <trkpt lat="44.33727" lon="1.40423">
        <ele>267.18127605853</ele>
        <time>2017-09-07T12:38:55Z</time>
      </trkpt>
      <trkpt lat="44.33725" lon="1.40434">
        <ele>266.94804206951</ele>
        <time>2017-09-07T12:39:02Z</time>
      </trkpt>
      <trkpt lat="44.33723" lon="1.40447">
        <ele>267.61772013837</ele>
        <time>2017-09-07T12:39:10Z</time>
      </trkpt>
      <trkpt lat="44.33721" lon="1.40459">
        <ele>268.41662875431</ele>
        <time>2017-09-07T12:39:19Z</time>
      </trkpt>
      <trkpt lat="44.33719" lon="1.4047">
        <ele>268.23068554974</ele>
        <time>2017-09-07T12:39:26Z</time>
      </trkpt>
      <trkpt lat="44.33718" lon="1.40482">
        <ele>267.82823761284</ele>
        <time>2017-09-07T12:39:35Z</time>
      </trkpt>
      <trkpt lat="44.33719" lon="1.40494">
        <ele>268.41782295706</ele>
        <time>2017-09-07T12:39:49Z</time>
      </trkpt>
      <trkpt lat="44.33711" lon="1.40489">
        <ele>269.39418012654</ele>
        <time>2017-09-07T12:40:24Z</time>
      </trkpt>
      <trkpt lat="44.33713" lon="1.40501">
        <ele>271.21647905416</ele>
        <time>2017-09-07T12:40:57Z</time>
      </trkpt>
      <trkpt lat="44.33713" lon="1.40513">
        <ele>271.18320864379</ele>
        <time>2017-09-07T12:41:04Z</time>
      </trkpt>
      <trkpt lat="44.33714" lon="1.40525">
        <ele>270.60004531302</ele>
        <time>2017-09-07T12:41:12Z</time>
      </trkpt>
      <trkpt lat="44.33711" lon="1.40537">
        <ele>270.58385741499</ele>
        <time>2017-09-07T12:41:18Z</time>
      </trkpt>
      <trkpt lat="44.3371" lon="1.40547">
        <ele>270.60928819711</ele>
        <time>2017-09-07T12:41:24Z</time>
      </trkpt>
      <trkpt lat="44.33707" lon="1.40559">
        <ele>271.0921306731</ele>
        <time>2017-09-07T12:41:31Z</time>
      </trkpt>
      <trkpt lat="44.33702" lon="1.40569">
        <ele>271.50227247909</ele>
        <time>2017-09-07T12:41:39Z</time>
      </trkpt>
      <trkpt lat="44.33696" lon="1.40576">
        <ele>271.80338864399</ele>
        <time>2017-09-07T12:41:45Z</time>
      </trkpt>
      <trkpt lat="44.3369" lon="1.40586">
        <ele>272.32118933887</ele>
        <time>2017-09-07T12:41:52Z</time>
      </trkpt>
      <trkpt lat="44.33685" lon="1.40592">
        <ele>272.62905210771</ele>
        <time>2017-09-07T12:41:57Z</time>
      </trkpt>
      <trkpt lat="44.33682" lon="1.40604">
        <ele>274.00348220327</ele>
        <time>2017-09-07T12:42:14Z</time>
      </trkpt>
      <trkpt lat="44.33678" lon="1.40614">
        <ele>273.79421966547</ele>
        <time>2017-09-07T12:42:19Z</time>
      </trkpt>
      <trkpt lat="44.33672" lon="1.40623">
        <ele>273.86398396325</ele>
        <time>2017-09-07T12:42:25Z</time>
      </trkpt>
      <trkpt lat="44.33665" lon="1.4063">
        <ele>273.75410889203</ele>
        <time>2017-09-07T12:42:32Z</time>
      </trkpt>
      <trkpt lat="44.33659" lon="1.40637">
        <ele>273.9899511732</ele>
        <time>2017-09-07T12:42:37Z</time>
      </trkpt>
      <trkpt lat="44.33655" lon="1.40646">
        <ele>274.41097584553</ele>
        <time>2017-09-07T12:42:43Z</time>
      </trkpt>
      <trkpt lat="44.33647" lon="1.40651">
        <ele>274.39860882797</ele>
        <time>2017-09-07T12:42:51Z</time>
      </trkpt>
      <trkpt lat="44.3364" lon="1.40655">
        <ele>274.52903083106</ele>
        <time>2017-09-07T12:42:56Z</time>
      </trkpt>
      <trkpt lat="44.33633" lon="1.40661">
        <ele>274.67573233509</ele>
        <time>2017-09-07T12:43:03Z</time>
      </trkpt>
      <trkpt lat="44.33628" lon="1.40671">
        <ele>274.3053566824</ele>
        <time>2017-09-07T12:43:08Z</time>
      </trkpt>
      <trkpt lat="44.33624" lon="1.40681">
        <ele>274.19311530159</ele>
        <time>2017-09-07T12:43:14Z</time>
      </trkpt>
      <trkpt lat="44.33621" lon="1.40692">
        <ele>274.35465724724</ele>
        <time>2017-09-07T12:43:20Z</time>
      </trkpt>
      <trkpt lat="44.33618" lon="1.40703">
        <ele>274.57085889437</ele>
        <time>2017-09-07T12:43:28Z</time>
      </trkpt>
      <trkpt lat="44.33614" lon="1.40714">
        <ele>274.89541717074</ele>
        <time>2017-09-07T12:43:35Z</time>
      </trkpt>
      <trkpt lat="44.33607" lon="1.40719">
        <ele>275.60910888013</ele>
        <time>2017-09-07T12:43:43Z</time>
      </trkpt>
      <trkpt lat="44.33599" lon="1.40717">
        <ele>276.06907192596</ele>
        <time>2017-09-07T12:43:48Z</time>
      </trkpt>
      <trkpt lat="44.3359" lon="1.40717">
        <ele>276.0805917925</ele>
        <time>2017-09-07T12:43:55Z</time>
      </trkpt>
      <trkpt lat="44.33583" lon="1.40714">
        <ele>276.02994049651</ele>
        <time>2017-09-07T12:44:01Z</time>
      </trkpt>
      <trkpt lat="44.33576" lon="1.40712">
        <ele>276.20330783466</ele>
        <time>2017-09-07T12:44:05Z</time>
      </trkpt>
      <trkpt lat="44.33568" lon="1.40715">
        <ele>276.5396716106</ele>
        <time>2017-09-07T12:44:11Z</time>
      </trkpt>
      <trkpt lat="44.3356" lon="1.40716">
        <ele>276.19247001188</ele>
        <time>2017-09-07T12:44:19Z</time>
      </trkpt>
      <trkpt lat="44.33551" lon="1.40715">
        <ele>275.6221721019</ele>
        <time>2017-09-07T12:44:27Z</time>
      </trkpt>
      <trkpt lat="44.33542" lon="1.40714">
        <ele>275.56050109822</ele>
        <time>2017-09-07T12:44:35Z</time>
      </trkpt>
      <trkpt lat="44.33535" lon="1.40712">
        <ele>275.64036635607</ele>
        <time>2017-09-07T12:44:43Z</time>
      </trkpt>
      <trkpt lat="44.33527" lon="1.40708">
        <ele>275.71155152865</ele>
        <time>2017-09-07T12:44:48Z</time>
      </trkpt>
      <trkpt lat="44.33519" lon="1.40703">
        <ele>275.77170029406</ele>
        <time>2017-09-07T12:44:56Z</time>
      </trkpt>
      <trkpt lat="44.33512" lon="1.40707">
        <ele>275.7286810464</ele>
        <time>2017-09-07T12:45:02Z</time>
      </trkpt>
      <trkpt lat="44.33509" lon="1.40718">
        <ele>275.25462942833</ele>
        <time>2017-09-07T12:45:09Z</time>
      </trkpt>
      <trkpt lat="44.33509" lon="1.4073">
        <ele>274.68742972263</ele>
        <time>2017-09-07T12:45:16Z</time>
      </trkpt>
      <trkpt lat="44.33509" lon="1.40742">
        <ele>274.07192187407</ele>
        <time>2017-09-07T12:45:23Z</time>
      </trkpt>
      <trkpt lat="44.33507" lon="1.40754">
        <ele>273.00242477899</ele>
        <time>2017-09-07T12:45:35Z</time>
      </trkpt>
      <trkpt lat="44.335" lon="1.40762">
        <ele>272.56477948524</ele>
        <time>2017-09-07T12:45:42Z</time>
      </trkpt>
      <trkpt lat="44.33492" lon="1.40766">
        <ele>272.07946425195</ele>
        <time>2017-09-07T12:45:49Z</time>
      </trkpt>
      <trkpt lat="44.33484" lon="1.40767">
        <ele>272.03068320692</ele>
        <time>2017-09-07T12:45:56Z</time>
      </trkpt>
      <trkpt lat="44.33476" lon="1.4077">
        <ele>271.89908190483</ele>
        <time>2017-09-07T12:46:03Z</time>
      </trkpt>
      <trkpt lat="44.33468" lon="1.40773">
        <ele>272.15408343387</ele>
        <time>2017-09-07T12:46:10Z</time>
      </trkpt>
      <trkpt lat="44.33464" lon="1.40783">
        <ele>271.66483152319</ele>
        <time>2017-09-07T12:46:16Z</time>
      </trkpt>
      <trkpt lat="44.33463" lon="1.40795">
        <ele>271.29913197135</ele>
        <time>2017-09-07T12:46:24Z</time>
      </trkpt>
      <trkpt lat="44.33462" lon="1.40805">
        <ele>270.56582752117</ele>
        <time>2017-09-07T12:46:32Z</time>
      </trkpt>
      <trkpt lat="44.33462" lon="1.40818">
        <ele>269.905577693</ele>
        <time>2017-09-07T12:46:44Z</time>
      </trkpt>
      <trkpt lat="44.33461" lon="1.4083">
        <ele>268.9455325881</ele>
        <time>2017-09-07T12:46:51Z</time>
      </trkpt>
      <trkpt lat="44.33463" lon="1.40842">
        <ele>267.44025393336</ele>
        <time>2017-09-07T12:47:03Z</time>
      </trkpt>
      <trkpt lat="44.33464" lon="1.40854">
        <ele>266.53027597686</ele>
        <time>2017-09-07T12:47:12Z</time>
      </trkpt>
      <trkpt lat="44.33466" lon="1.40865">
        <ele>265.99630244522</ele>
        <time>2017-09-07T12:47:19Z</time>
      </trkpt>
      <trkpt lat="44.33469" lon="1.40876">
        <ele>265.02780945463</ele>
        <time>2017-09-07T12:47:28Z</time>
      </trkpt>
      <trkpt lat="44.33468" lon="1.40888">
        <ele>264.30063220109</ele>
        <time>2017-09-07T12:47:36Z</time>
      </trkpt>
      <trkpt lat="44.33468" lon="1.409">
        <ele>263.82658839893</ele>
        <time>2017-09-07T12:47:44Z</time>
      </trkpt>
      <trkpt lat="44.33466" lon="1.40912">
        <ele>263.48569772159</ele>
        <time>2017-09-07T12:47:51Z</time>
      </trkpt>
      <trkpt lat="44.33468" lon="1.40922">
        <ele>262.81642444989</ele>
        <time>2017-09-07T12:48:09Z</time>
      </trkpt>
      <trkpt lat="44.33471" lon="1.40933">
        <ele>261.98168575854</ele>
        <time>2017-09-07T12:48:17Z</time>
      </trkpt>
      <trkpt lat="44.33472" lon="1.40944">
        <ele>261.58158327573</ele>
        <time>2017-09-07T12:48:25Z</time>
      </trkpt>
      <trkpt lat="44.33475" lon="1.40956">
        <ele>261.24155184022</ele>
        <time>2017-09-07T12:48:31Z</time>
      </trkpt>
      <trkpt lat="44.33477" lon="1.40968">
        <ele>261.39131648927</ele>
        <time>2017-09-07T12:48:40Z</time>
      </trkpt>
      <trkpt lat="44.33476" lon="1.40979">
        <ele>262.24039993169</ele>
        <time>2017-09-07T12:48:48Z</time>
      </trkpt>
      <trkpt lat="44.33475" lon="1.4099">
        <ele>262.92399845862</ele>
        <time>2017-09-07T12:48:56Z</time>
      </trkpt>
      <trkpt lat="44.33475" lon="1.41001">
        <ele>263.52707405142</ele>
        <time>2017-09-07T12:49:02Z</time>
      </trkpt>
      <trkpt lat="44.33476" lon="1.41013">
        <ele>263.99070864244</ele>
        <time>2017-09-07T12:49:09Z</time>
      </trkpt>
      <trkpt lat="44.33475" lon="1.41024">
        <ele>264.3054986348</ele>
        <time>2017-09-07T12:49:15Z</time>
      </trkpt>
      <trkpt lat="44.33476" lon="1.41036">
        <ele>264.9991818894</ele>
        <time>2017-09-07T12:49:21Z</time>
      </trkpt>
      <trkpt lat="44.33472" lon="1.41046">
        <ele>265.65356565935</ele>
        <time>2017-09-07T12:49:28Z</time>
      </trkpt>
      <trkpt lat="44.33469" lon="1.41057">
        <ele>266.88056336319</ele>
        <time>2017-09-07T12:49:37Z</time>
      </trkpt>
      <trkpt lat="44.33464" lon="1.41066">
        <ele>267.51661188632</ele>
        <time>2017-09-07T12:49:44Z</time>
      </trkpt>
      <trkpt lat="44.33456" lon="1.4107">
        <ele>268.84431022759</ele>
        <time>2017-09-07T12:49:52Z</time>
      </trkpt>
      <trkpt lat="44.3345" lon="1.41074">
        <ele>269.71485417116</ele>
        <time>2017-09-07T12:49:58Z</time>
      </trkpt>
      <trkpt lat="44.33444" lon="1.41081">
        <ele>270.33711081465</ele>
        <time>2017-09-07T12:50:04Z</time>
      </trkpt>
      <trkpt lat="44.33437" lon="1.41088">
        <ele>271.11389418881</ele>
        <time>2017-09-07T12:50:12Z</time>
      </trkpt>
      <trkpt lat="44.33429" lon="1.41094">
        <ele>271.30384760446</ele>
        <time>2017-09-07T12:50:19Z</time>
      </trkpt>
      <trkpt lat="44.33422" lon="1.41099">
        <ele>271.91997906978</ele>
        <time>2017-09-07T12:50:27Z</time>
      </trkpt>
      <trkpt lat="44.33414" lon="1.41105">
        <ele>272.13777671647</ele>
        <time>2017-09-07T12:50:34Z</time>
      </trkpt>
      <trkpt lat="44.33406" lon="1.4111">
        <ele>272.60164699945</ele>
        <time>2017-09-07T12:50:41Z</time>
      </trkpt>
      <trkpt lat="44.33399" lon="1.41117">
        <ele>273.76263575879</ele>
        <time>2017-09-07T12:50:49Z</time>
      </trkpt>
      <trkpt lat="44.33391" lon="1.41123">
        <ele>274.37639239186</ele>
        <time>2017-09-07T12:50:57Z</time>
      </trkpt>
      <trkpt lat="44.33386" lon="1.41131">
        <ele>274.97926250864</ele>
        <time>2017-09-07T12:51:04Z</time>
      </trkpt>
      <trkpt lat="44.33385" lon="1.41144">
        <ele>273.92646957373</ele>
        <time>2017-09-07T12:52:16Z</time>
      </trkpt>
      <trkpt lat="44.33385" lon="1.41156">
        <ele>277.51661042255</ele>
        <time>2017-09-07T12:54:12Z</time>
      </trkpt>
      <trkpt lat="44.33385" lon="1.41168">
        <ele>277.5547515272</ele>
        <time>2017-09-07T12:54:20Z</time>
      </trkpt>
      <trkpt lat="44.33387" lon="1.41179">
        <ele>277.2645037196</ele>
        <time>2017-09-07T12:54:30Z</time>
      </trkpt>
      <trkpt lat="44.33388" lon="1.41192">
        <ele>277.86441079914</ele>
        <time>2017-09-07T12:54:40Z</time>
      </trkpt>
      <trkpt lat="44.3339" lon="1.41203">
        <ele>278.25766919949</ele>
        <time>2017-09-07T12:54:47Z</time>
      </trkpt>
      <trkpt lat="44.33389" lon="1.41215">
        <ele>277.99024222926</ele>
        <time>2017-09-07T12:54:53Z</time>
      </trkpt>
      <trkpt lat="44.33386" lon="1.41225">
        <ele>277.92072255277</ele>
        <time>2017-09-07T12:55:01Z</time>
      </trkpt>
      <trkpt lat="44.33388" lon="1.41238">
        <ele>278.30586973568</ele>
        <time>2017-09-07T12:55:10Z</time>
      </trkpt>
      <trkpt lat="44.33392" lon="1.41248">
        <ele>278.61773777337</ele>
        <time>2017-09-07T12:55:18Z</time>
      </trkpt>
      <trkpt lat="44.33399" lon="1.41256">
        <ele>278.76411573716</ele>
        <time>2017-09-07T12:55:33Z</time>
      </trkpt>
      <trkpt lat="44.33406" lon="1.41253">
        <ele>278.25853120912</ele>
        <time>2017-09-07T12:55:39Z</time>
      </trkpt>
      <trkpt lat="44.33414" lon="1.41249">
        <ele>277.37027994583</ele>
        <time>2017-09-07T12:55:47Z</time>
      </trkpt>
      <trkpt lat="44.33422" lon="1.41246">
        <ele>277.20862644005</ele>
        <time>2017-09-07T12:55:57Z</time>
      </trkpt>
      <trkpt lat="44.3343" lon="1.41244">
        <ele>277.48348990722</ele>
        <time>2017-09-07T12:56:03Z</time>
      </trkpt>
      <trkpt lat="44.33438" lon="1.41245">
        <ele>278.03876034253</ele>
        <time>2017-09-07T12:56:09Z</time>
      </trkpt>
      <trkpt lat="44.33445" lon="1.41252">
        <ele>279.16616228506</ele>
        <time>2017-09-07T12:56:18Z</time>
      </trkpt>
      <trkpt lat="44.33452" lon="1.41257">
        <ele>279.74199454758</ele>
        <time>2017-09-07T12:56:26Z</time>
      </trkpt>
      <trkpt lat="44.33459" lon="1.41264">
        <ele>279.838978988</ele>
        <time>2017-09-07T12:56:34Z</time>
      </trkpt>
      <trkpt lat="44.33465" lon="1.41271">
        <ele>280.30984724492</ele>
        <time>2017-09-07T12:56:43Z</time>
      </trkpt>
      <trkpt lat="44.33472" lon="1.41278">
        <ele>280.73344378725</ele>
        <time>2017-09-07T12:56:52Z</time>
      </trkpt>
      <trkpt lat="44.3348" lon="1.41282">
        <ele>281.99630858224</ele>
        <time>2017-09-07T12:57:03Z</time>
      </trkpt>
      <trkpt lat="44.33487" lon="1.41288">
        <ele>282.95304105419</ele>
        <time>2017-09-07T12:57:10Z</time>
      </trkpt>
      <trkpt lat="44.33495" lon="1.41294">
        <ele>283.50742725576</ele>
        <time>2017-09-07T12:57:17Z</time>
      </trkpt>
      <trkpt lat="44.33502" lon="1.41301">
        <ele>283.52264123521</ele>
        <time>2017-09-07T12:57:25Z</time>
      </trkpt>
      <trkpt lat="44.33508" lon="1.41309">
        <ele>283.5783789681</ele>
        <time>2017-09-07T12:57:33Z</time>
      </trkpt>
      <trkpt lat="44.33515" lon="1.41315">
        <ele>283.67063176073</ele>
        <time>2017-09-07T12:57:42Z</time>
      </trkpt>
      <trkpt lat="44.33522" lon="1.4132">
        <ele>284.51497303386</ele>
        <time>2017-09-07T12:57:52Z</time>
      </trkpt>
      <trkpt lat="44.33528" lon="1.41327">
        <ele>285.24871311978</ele>
        <time>2017-09-07T12:58:01Z</time>
      </trkpt>
      <trkpt lat="44.33535" lon="1.41335">
        <ele>285.10851264986</ele>
        <time>2017-09-07T12:58:11Z</time>
      </trkpt>
      <trkpt lat="44.33542" lon="1.41342">
        <ele>286.23179362451</ele>
        <time>2017-09-07T12:58:35Z</time>
      </trkpt>
      <trkpt lat="44.33547" lon="1.41349">
        <ele>286.64817020149</ele>
        <time>2017-09-07T12:58:42Z</time>
      </trkpt>
      <trkpt lat="44.33554" lon="1.41356">
        <ele>286.45769442435</ele>
        <time>2017-09-07T12:59:00Z</time>
      </trkpt>
      <trkpt lat="44.33547" lon="1.41363">
        <ele>285.93199597309</ele>
        <time>2017-09-07T12:59:56Z</time>
      </trkpt>
      <trkpt lat="44.33539" lon="1.41366">
        <ele>286.17172272201</ele>
        <time>2017-09-07T13:00:04Z</time>
      </trkpt>
      <trkpt lat="44.33531" lon="1.4137">
        <ele>286.99110019032</ele>
        <time>2017-09-07T13:00:12Z</time>
      </trkpt>
      <trkpt lat="44.33523" lon="1.41373">
        <ele>287.68971945654</ele>
        <time>2017-09-07T13:00:18Z</time>
      </trkpt>
      <trkpt lat="44.33516" lon="1.41377">
        <ele>288.13031315798</ele>
        <time>2017-09-07T13:00:24Z</time>
      </trkpt>
      <trkpt lat="44.33508" lon="1.41377">
        <ele>288.66869680071</ele>
        <time>2017-09-07T13:00:31Z</time>
      </trkpt>
      <trkpt lat="44.33499" lon="1.4138">
        <ele>289.13964188812</ele>
        <time>2017-09-07T13:00:38Z</time>
      </trkpt>
      <trkpt lat="44.33491" lon="1.41382">
        <ele>289.31448231124</ele>
        <time>2017-09-07T13:00:45Z</time>
      </trkpt>
      <trkpt lat="44.33483" lon="1.41384">
        <ele>289.42347094858</ele>
        <time>2017-09-07T13:00:52Z</time>
      </trkpt>
      <trkpt lat="44.33475" lon="1.41387">
        <ele>290.20638900954</ele>
        <time>2017-09-07T13:01:01Z</time>
      </trkpt>
      <trkpt lat="44.33467" lon="1.4139">
        <ele>290.15516958381</ele>
        <time>2017-09-07T13:01:06Z</time>
      </trkpt>
      <trkpt lat="44.33459" lon="1.41394">
        <ele>290.42094246903</ele>
        <time>2017-09-07T13:01:14Z</time>
      </trkpt>
      <trkpt lat="44.33451" lon="1.41397">
        <ele>290.85027091681</ele>
        <time>2017-09-07T13:01:21Z</time>
      </trkpt>
      <trkpt lat="44.33444" lon="1.41402">
        <ele>290.78167489328</ele>
        <time>2017-09-07T13:01:26Z</time>
      </trkpt>
      <trkpt lat="44.33436" lon="1.41405">
        <ele>290.55187678753</ele>
        <time>2017-09-07T13:01:33Z</time>
      </trkpt>
      <trkpt lat="44.33429" lon="1.41409">
        <ele>290.27326822186</ele>
        <time>2017-09-07T13:01:41Z</time>
      </trkpt>
      <trkpt lat="44.33421" lon="1.41414">
        <ele>289.92940437741</ele>
        <time>2017-09-07T13:01:48Z</time>
      </trkpt>
      <trkpt lat="44.33413" lon="1.41419">
        <ele>290.50685077963</ele>
        <time>2017-09-07T13:01:57Z</time>
      </trkpt>
      <trkpt lat="44.33405" lon="1.41422">
        <ele>290.64336181676</ele>
        <time>2017-09-07T13:02:04Z</time>
      </trkpt>
      <trkpt lat="44.33397" lon="1.41428">
        <ele>290.47749659314</ele>
        <time>2017-09-07T13:02:12Z</time>
      </trkpt>
      <trkpt lat="44.3339" lon="1.41434">
        <ele>289.80036620108</ele>
        <time>2017-09-07T13:02:20Z</time>
      </trkpt>
      <trkpt lat="44.33383" lon="1.41439">
        <ele>289.72377416806</ele>
        <time>2017-09-07T13:02:26Z</time>
      </trkpt>
      <trkpt lat="44.33376" lon="1.41446">
        <ele>289.47564803396</ele>
        <time>2017-09-07T13:02:33Z</time>
      </trkpt>
      <trkpt lat="44.33371" lon="1.41454">
        <ele>288.87128893184</ele>
        <time>2017-09-07T13:02:39Z</time>
      </trkpt>
      <trkpt lat="44.33366" lon="1.41463">
        <ele>288.50020811014</ele>
        <time>2017-09-07T13:02:47Z</time>
      </trkpt>
      <trkpt lat="44.3336" lon="1.41471">
        <ele>288.3261307964</ele>
        <time>2017-09-07T13:02:54Z</time>
      </trkpt>
      <trkpt lat="44.33354" lon="1.41479">
        <ele>288.01213911253</ele>
        <time>2017-09-07T13:03:00Z</time>
      </trkpt>
      <trkpt lat="44.33349" lon="1.41488">
        <ele>287.8782813635</ele>
        <time>2017-09-07T13:03:07Z</time>
      </trkpt>
      <trkpt lat="44.33343" lon="1.41496">
        <ele>287.62932891967</ele>
        <time>2017-09-07T13:03:15Z</time>
      </trkpt>
      <trkpt lat="44.33336" lon="1.41504">
        <ele>286.80975449079</ele>
        <time>2017-09-07T13:03:23Z</time>
      </trkpt>
      <trkpt lat="44.3333" lon="1.41512">
        <ele>286.52481829352</ele>
        <time>2017-09-07T13:03:31Z</time>
      </trkpt>
      <trkpt lat="44.33324" lon="1.41521">
        <ele>286.08213435752</ele>
        <time>2017-09-07T13:03:39Z</time>
      </trkpt>
      <trkpt lat="44.33318" lon="1.41529">
        <ele>285.50286193449</ele>
        <time>2017-09-07T13:03:47Z</time>
      </trkpt>
      <trkpt lat="44.33312" lon="1.41535">
        <ele>285.11792130192</ele>
        <time>2017-09-07T13:03:52Z</time>
      </trkpt>
      <trkpt lat="44.33306" lon="1.41542">
        <ele>284.51088471785</ele>
        <time>2017-09-07T13:03:59Z</time>
      </trkpt>
      <trkpt lat="44.33299" lon="1.4155">
        <ele>284.11583457056</ele>
        <time>2017-09-07T13:04:06Z</time>
      </trkpt>
      <trkpt lat="44.33291" lon="1.41553">
        <ele>283.09802893463</ele>
        <time>2017-09-07T13:04:14Z</time>
      </trkpt>
      <trkpt lat="44.33283" lon="1.41549">
        <ele>282.86378018361</ele>
        <time>2017-09-07T13:04:21Z</time>
      </trkpt>
      <trkpt lat="44.33276" lon="1.41544">
        <ele>282.88099543388</ele>
        <time>2017-09-07T13:04:29Z</time>
      </trkpt>
      <trkpt lat="44.33268" lon="1.41539">
        <ele>283.14457871538</ele>
        <time>2017-09-07T13:04:36Z</time>
      </trkpt>
      <trkpt lat="44.33261" lon="1.41535">
        <ele>283.06505657679</ele>
        <time>2017-09-07T13:04:42Z</time>
      </trkpt>
      <trkpt lat="44.33254" lon="1.41529">
        <ele>282.78709884286</ele>
        <time>2017-09-07T13:04:48Z</time>
      </trkpt>
      <trkpt lat="44.33246" lon="1.41527">
        <ele>282.4419752323</ele>
        <time>2017-09-07T13:04:56Z</time>
      </trkpt>
      <trkpt lat="44.33238" lon="1.41522">
        <ele>282.30759891704</ele>
        <time>2017-09-07T13:05:02Z</time>
      </trkpt>
      <trkpt lat="44.3323" lon="1.41517">
        <ele>282.29914152175</ele>
        <time>2017-09-07T13:05:09Z</time>
      </trkpt>
      <trkpt lat="44.33223" lon="1.41512">
        <ele>282.56513860744</ele>
        <time>2017-09-07T13:05:16Z</time>
      </trkpt>
      <trkpt lat="44.33214" lon="1.41509">
        <ele>282.42253847874</ele>
        <time>2017-09-07T13:05:24Z</time>
      </trkpt>
      <trkpt lat="44.33207" lon="1.41503">
        <ele>282.13898111727</ele>
        <time>2017-09-07T13:05:33Z</time>
      </trkpt>
      <trkpt lat="44.332" lon="1.41497">
        <ele>282.17019202209</ele>
        <time>2017-09-07T13:05:39Z</time>
      </trkpt>
      <trkpt lat="44.33193" lon="1.41493">
        <ele>281.89608674342</ele>
        <time>2017-09-07T13:05:45Z</time>
      </trkpt>
      <trkpt lat="44.33187" lon="1.41485">
        <ele>281.96367072197</ele>
        <time>2017-09-07T13:05:51Z</time>
      </trkpt>
      <trkpt lat="44.33182" lon="1.41474">
        <ele>281.76716131456</ele>
        <time>2017-09-07T13:05:56Z</time>
      </trkpt>
      <trkpt lat="44.33178" lon="1.41465">
        <ele>280.53879715863</ele>
        <time>2017-09-07T13:06:04Z</time>
      </trkpt>
      <trkpt lat="44.33173" lon="1.41455">
        <ele>279.67160170012</ele>
        <time>2017-09-07T13:06:11Z</time>
      </trkpt>
      <trkpt lat="44.33169" lon="1.41446">
        <ele>279.05772622488</ele>
        <time>2017-09-07T13:06:19Z</time>
      </trkpt>
      <trkpt lat="44.33165" lon="1.41435">
        <ele>278.61250299355</ele>
        <time>2017-09-07T13:06:28Z</time>
      </trkpt>
      <trkpt lat="44.3316" lon="1.41425">
        <ele>278.00139348293</ele>
        <time>2017-09-07T13:06:36Z</time>
      </trkpt>
      <trkpt lat="44.33154" lon="1.41417">
        <ele>277.91147914373</ele>
        <time>2017-09-07T13:06:41Z</time>
      </trkpt>
      <trkpt lat="44.33149" lon="1.41408">
        <ele>277.44984954979</ele>
        <time>2017-09-07T13:06:48Z</time>
      </trkpt>
      <trkpt lat="44.33146" lon="1.41398">
        <ele>277.42192163913</ele>
        <time>2017-09-07T13:06:53Z</time>
      </trkpt>
      <trkpt lat="44.33144" lon="1.41386">
        <ele>277.47491310968</ele>
        <time>2017-09-07T13:07:00Z</time>
      </trkpt>
      <trkpt lat="44.33144" lon="1.41374">
        <ele>277.03423630157</ele>
        <time>2017-09-07T13:07:08Z</time>
      </trkpt>
      <trkpt lat="44.33144" lon="1.41364">
        <ele>276.88513137818</ele>
        <time>2017-09-07T13:07:15Z</time>
      </trkpt>
      <trkpt lat="44.33143" lon="1.41353">
        <ele>276.89051895624</ele>
        <time>2017-09-07T13:07:20Z</time>
      </trkpt>
      <trkpt lat="44.33142" lon="1.41341">
        <ele>277.021167303</ele>
        <time>2017-09-07T13:07:27Z</time>
      </trkpt>
      <trkpt lat="44.33139" lon="1.41331">
        <ele>277.12361796182</ele>
        <time>2017-09-07T13:07:33Z</time>
      </trkpt>
      <trkpt lat="44.33135" lon="1.41321">
        <ele>277.11003548139</ele>
        <time>2017-09-07T13:07:40Z</time>
      </trkpt>
      <trkpt lat="44.33132" lon="1.4131">
        <ele>276.86887144904</ele>
        <time>2017-09-07T13:07:47Z</time>
      </trkpt>
      <trkpt lat="44.33127" lon="1.413">
        <ele>276.83210493019</ele>
        <time>2017-09-07T13:07:54Z</time>
      </trkpt>
      <trkpt lat="44.33124" lon="1.4129">
        <ele>277.14224045331</ele>
        <time>2017-09-07T13:08:00Z</time>
      </trkpt>
      <trkpt lat="44.33121" lon="1.4128">
        <ele>277.21752126946</ele>
        <time>2017-09-07T13:08:06Z</time>
      </trkpt>
      <trkpt lat="44.33117" lon="1.41271">
        <ele>276.98716017579</ele>
        <time>2017-09-07T13:08:13Z</time>
      </trkpt>
      <trkpt lat="44.33112" lon="1.4126">
        <ele>276.8818182229</ele>
        <time>2017-09-07T13:08:20Z</time>
      </trkpt>
      <trkpt lat="44.33108" lon="1.41251">
        <ele>276.56291859017</ele>
        <time>2017-09-07T13:08:27Z</time>
      </trkpt>
      <trkpt lat="44.33103" lon="1.41242">
        <ele>276.70430372389</ele>
        <time>2017-09-07T13:08:33Z</time>
      </trkpt>
      <trkpt lat="44.33097" lon="1.41234">
        <ele>276.90458233189</ele>
        <time>2017-09-07T13:08:39Z</time>
      </trkpt>
      <trkpt lat="44.33092" lon="1.41228">
        <ele>276.863818925</ele>
        <time>2017-09-07T13:08:45Z</time>
      </trkpt>
      <trkpt lat="44.33084" lon="1.41222">
        <ele>276.70361854751</ele>
        <time>2017-09-07T13:08:51Z</time>
      </trkpt>
      <trkpt lat="44.33077" lon="1.41215">
        <ele>276.59245639265</ele>
        <time>2017-09-07T13:08:59Z</time>
      </trkpt>
      <trkpt lat="44.33072" lon="1.41207">
        <ele>276.96243789999</ele>
        <time>2017-09-07T13:09:05Z</time>
      </trkpt>
      <trkpt lat="44.33065" lon="1.412">
        <ele>277.07732577089</ele>
        <time>2017-09-07T13:09:12Z</time>
      </trkpt>
      <trkpt lat="44.3306" lon="1.41191">
        <ele>277.35507504509</ele>
        <time>2017-09-07T13:09:19Z</time>
      </trkpt>
      <trkpt lat="44.33052" lon="1.41188">
        <ele>277.87813711821</ele>
        <time>2017-09-07T13:09:26Z</time>
      </trkpt>
      <trkpt lat="44.33045" lon="1.41189">
        <ele>277.72556026652</ele>
        <time>2017-09-07T13:09:32Z</time>
      </trkpt>
      <trkpt lat="44.33037" lon="1.41194">
        <ele>277.23106250857</ele>
        <time>2017-09-07T13:09:39Z</time>
      </trkpt>
      <trkpt lat="44.33029" lon="1.41193">
        <ele>277.19472344933</ele>
        <time>2017-09-07T13:09:45Z</time>
      </trkpt>
      <trkpt lat="44.33021" lon="1.41195">
        <ele>277.04084800602</ele>
        <time>2017-09-07T13:09:52Z</time>
      </trkpt>
      <trkpt lat="44.33013" lon="1.41196">
        <ele>276.88363113623</ele>
        <time>2017-09-07T13:09:59Z</time>
      </trkpt>
      <trkpt lat="44.33004" lon="1.41197">
        <ele>276.72781487328</ele>
        <time>2017-09-07T13:10:06Z</time>
      </trkpt>
      <trkpt lat="44.32996" lon="1.412">
        <ele>277.11202795273</ele>
        <time>2017-09-07T13:10:12Z</time>
      </trkpt>
      <trkpt lat="44.32987" lon="1.41203">
        <ele>277.24300870845</ele>
        <time>2017-09-07T13:10:21Z</time>
      </trkpt>
      <trkpt lat="44.32979" lon="1.41202">
        <ele>277.41925859154</ele>
        <time>2017-09-07T13:10:29Z</time>
      </trkpt>
      <trkpt lat="44.32972" lon="1.41204">
        <ele>277.3867143437</ele>
        <time>2017-09-07T13:10:36Z</time>
      </trkpt>
      <trkpt lat="44.32963" lon="1.41205">
        <ele>277.42466818432</ele>
        <time>2017-09-07T13:10:43Z</time>
      </trkpt>
      <trkpt lat="44.32955" lon="1.41206">
        <ele>277.20211273788</ele>
        <time>2017-09-07T13:10:51Z</time>
      </trkpt>
      <trkpt lat="44.32947" lon="1.4121">
        <ele>276.86591749464</ele>
        <time>2017-09-07T13:10:56Z</time>
      </trkpt>
      <trkpt lat="44.32938" lon="1.41214">
        <ele>275.96308762548</ele>
        <time>2017-09-07T13:11:07Z</time>
      </trkpt>
      <trkpt lat="44.32935" lon="1.41204">
        <ele>276.10517673023</ele>
        <time>2017-09-07T13:11:24Z</time>
      </trkpt>
      <trkpt lat="44.32933" lon="1.41193">
        <ele>275.91346999729</ele>
        <time>2017-09-07T13:11:32Z</time>
      </trkpt>
      <trkpt lat="44.32929" lon="1.41183">
        <ele>276.04907839922</ele>
        <time>2017-09-07T13:11:37Z</time>
      </trkpt>
      <trkpt lat="44.32924" lon="1.41173">
        <ele>275.73766393853</ele>
        <time>2017-09-07T13:11:47Z</time>
      </trkpt>
      <trkpt lat="44.32922" lon="1.41164">
        <ele>275.19915888209</ele>
        <time>2017-09-07T13:11:56Z</time>
      </trkpt>
      <trkpt lat="44.32921" lon="1.41151">
        <ele>274.61821997734</ele>
        <time>2017-09-07T13:12:03Z</time>
      </trkpt>
      <trkpt lat="44.32922" lon="1.4114">
        <ele>273.79501151663</ele>
        <time>2017-09-07T13:12:11Z</time>
      </trkpt>
      <trkpt lat="44.32922" lon="1.41128">
        <ele>271.87621767131</ele>
        <time>2017-09-07T13:12:23Z</time>
      </trkpt>
      <trkpt lat="44.3292" lon="1.41117">
        <ele>270.71990135934</ele>
        <time>2017-09-07T13:12:30Z</time>
      </trkpt>
      <trkpt lat="44.32916" lon="1.41106">
        <ele>269.56288729732</ele>
        <time>2017-09-07T13:12:37Z</time>
      </trkpt>
      <trkpt lat="44.32915" lon="1.41094">
        <ele>267.39519869712</ele>
        <time>2017-09-07T13:12:49Z</time>
      </trkpt>
      <trkpt lat="44.32915" lon="1.41082">
        <ele>265.71546655729</ele>
        <time>2017-09-07T13:12:58Z</time>
      </trkpt>
      <trkpt lat="44.32916" lon="1.4107">
        <ele>263.96236288897</ele>
        <time>2017-09-07T13:13:08Z</time>
      </trkpt>
      <trkpt lat="44.32917" lon="1.4106">
        <ele>262.77995395067</ele>
        <time>2017-09-07T13:13:14Z</time>
      </trkpt>
      <trkpt lat="44.32917" lon="1.41048">
        <ele>261.91428003549</ele>
        <time>2017-09-07T13:13:22Z</time>
      </trkpt>
      <trkpt lat="44.32914" lon="1.41037">
        <ele>260.10526697672</ele>
        <time>2017-09-07T13:13:33Z</time>
      </trkpt>
      <trkpt lat="44.32911" lon="1.41027">
        <ele>258.28526798679</ele>
        <time>2017-09-07T13:13:42Z</time>
      </trkpt>
      <trkpt lat="44.32906" lon="1.41017">
        <ele>257.02823851572</ele>
        <time>2017-09-07T13:13:49Z</time>
      </trkpt>
      <trkpt lat="44.32903" lon="1.41006">
        <ele>255.43847179283</ele>
        <time>2017-09-07T13:14:00Z</time>
      </trkpt>
      <trkpt lat="44.32898" lon="1.40997">
        <ele>253.92160315979</ele>
        <time>2017-09-07T13:14:10Z</time>
      </trkpt>
      <trkpt lat="44.32894" lon="1.40987">
        <ele>253.00273285005</ele>
        <time>2017-09-07T13:14:16Z</time>
      </trkpt>
      <trkpt lat="44.32889" lon="1.40979">
        <ele>252.55792389655</ele>
        <time>2017-09-07T13:14:21Z</time>
      </trkpt>
      <trkpt lat="44.32883" lon="1.40971">
        <ele>250.80695840242</ele>
        <time>2017-09-07T13:14:33Z</time>
      </trkpt>
      <trkpt lat="44.32878" lon="1.40961">
        <ele>248.11155246012</ele>
        <time>2017-09-07T13:14:46Z</time>
      </trkpt>
      <trkpt lat="44.32874" lon="1.4095">
        <ele>247.19682811116</ele>
        <time>2017-09-07T13:14:52Z</time>
      </trkpt>
      <trkpt lat="44.32868" lon="1.4094">
        <ele>246.32306687204</ele>
        <time>2017-09-07T13:14:57Z</time>
      </trkpt>
      <trkpt lat="44.32862" lon="1.40931">
        <ele>245.09430716276</ele>
        <time>2017-09-07T13:15:05Z</time>
      </trkpt>
      <trkpt lat="44.32857" lon="1.40922">
        <ele>243.90509321236</ele>
        <time>2017-09-07T13:15:13Z</time>
      </trkpt>
      <trkpt lat="44.32853" lon="1.40912">
        <ele>243.03126198172</ele>
        <time>2017-09-07T13:15:20Z</time>
      </trkpt>
      <trkpt lat="44.32849" lon="1.40903">
        <ele>242.00164636112</ele>
        <time>2017-09-07T13:15:27Z</time>
      </trkpt>
      <trkpt lat="44.32845" lon="1.40891">
        <ele>241.34995766711</ele>
        <time>2017-09-07T13:15:35Z</time>
      </trkpt>
      <trkpt lat="44.32843" lon="1.40881">
        <ele>240.94637777685</ele>
        <time>2017-09-07T13:15:41Z</time>
      </trkpt>
      <trkpt lat="44.3284" lon="1.40869">
        <ele>240.51593078532</ele>
        <time>2017-09-07T13:15:50Z</time>
      </trkpt>
      <trkpt lat="44.32839" lon="1.40859">
        <ele>240.11785690144</ele>
        <time>2017-09-07T13:15:56Z</time>
      </trkpt>
      <trkpt lat="44.32836" lon="1.40848">
        <ele>238.58771413773</ele>
        <time>2017-09-07T13:17:27Z</time>
      </trkpt>
      <trkpt lat="44.32832" lon="1.40837">
        <ele>238.72073708299</ele>
        <time>2017-09-07T13:17:39Z</time>
      </trkpt>
      <trkpt lat="44.32832" lon="1.40825">
        <ele>238.84058453668</ele>
        <time>2017-09-07T13:17:45Z</time>
      </trkpt>
      <trkpt lat="44.32831" lon="1.40814">
        <ele>239.24448051414</ele>
        <time>2017-09-07T13:17:53Z</time>
      </trkpt>
      <trkpt lat="44.32831" lon="1.40802">
        <ele>239.21293169515</ele>
        <time>2017-09-07T13:17:59Z</time>
      </trkpt>
      <trkpt lat="44.32834" lon="1.40791">
        <ele>238.73966331542</ele>
        <time>2017-09-07T13:18:06Z</time>
      </trkpt>
      <trkpt lat="44.32834" lon="1.40779">
        <ele>238.56607199924</ele>
        <time>2017-09-07T13:18:13Z</time>
      </trkpt>
      <trkpt lat="44.32835" lon="1.40768">
        <ele>238.8983083737</ele>
        <time>2017-09-07T13:18:20Z</time>
      </trkpt>
      <trkpt lat="44.32836" lon="1.40757">
        <ele>239.22536041724</ele>
        <time>2017-09-07T13:18:27Z</time>
      </trkpt>
      <trkpt lat="44.32839" lon="1.40746">
        <ele>239.01299110615</ele>
        <time>2017-09-07T13:18:34Z</time>
      </trkpt>
      <trkpt lat="44.32839" lon="1.40735">
        <ele>239.12463379205</ele>
        <time>2017-09-07T13:18:40Z</time>
      </trkpt>
      <trkpt lat="44.32839" lon="1.40724">
        <ele>239.18019371827</ele>
        <time>2017-09-07T13:18:46Z</time>
      </trkpt>
      <trkpt lat="44.3284" lon="1.40712">
        <ele>238.92437068405</ele>
        <time>2017-09-07T13:18:54Z</time>
      </trkpt>
      <trkpt lat="44.32842" lon="1.407">
        <ele>238.74118631127</ele>
        <time>2017-09-07T13:19:02Z</time>
      </trkpt>
      <trkpt lat="44.32843" lon="1.40689">
        <ele>238.82404514999</ele>
        <time>2017-09-07T13:19:09Z</time>
      </trkpt>
      <trkpt lat="44.32844" lon="1.40677">
        <ele>238.8966453642</ele>
        <time>2017-09-07T13:19:16Z</time>
      </trkpt>
      <trkpt lat="44.32846" lon="1.40666">
        <ele>239.25161949552</ele>
        <time>2017-09-07T13:19:23Z</time>
      </trkpt>
      <trkpt lat="44.32849" lon="1.40654">
        <ele>239.807658483</ele>
        <time>2017-09-07T13:19:31Z</time>
      </trkpt>
      <trkpt lat="44.32849" lon="1.40643">
        <ele>239.14567564817</ele>
        <time>2017-09-07T13:19:39Z</time>
      </trkpt>
      <trkpt lat="44.3285" lon="1.40632">
        <ele>237.8832640398</ele>
        <time>2017-09-07T13:19:46Z</time>
      </trkpt>
      <trkpt lat="44.32853" lon="1.4062">
        <ele>236.92073146104</ele>
        <time>2017-09-07T13:19:55Z</time>
      </trkpt>
      <trkpt lat="44.32857" lon="1.4061">
        <ele>236.62083948672</ele>
        <time>2017-09-07T13:20:02Z</time>
      </trkpt>
      <trkpt lat="44.3286" lon="1.40599">
        <ele>237.03915601176</ele>
        <time>2017-09-07T13:20:12Z</time>
      </trkpt>
      <trkpt lat="44.32863" lon="1.40587">
        <ele>237.65383435986</ele>
        <time>2017-09-07T13:20:22Z</time>
      </trkpt>
      <trkpt lat="44.32865" lon="1.40575">
        <ele>241.93101318784</ele>
        <time>2017-09-07T13:20:48Z</time>
      </trkpt>
      <trkpt lat="44.32867" lon="1.40563">
        <ele>244.43541765946</ele>
        <time>2017-09-07T13:21:00Z</time>
      </trkpt>
      <trkpt lat="44.3287" lon="1.40552">
        <ele>245.25964928134</ele>
        <time>2017-09-07T13:21:07Z</time>
      </trkpt>
      <trkpt lat="44.32875" lon="1.40542">
        <ele>245.89799367511</ele>
        <time>2017-09-07T13:21:15Z</time>
      </trkpt>
      <trkpt lat="44.3287" lon="1.40532">
        <ele>247.36307657744</ele>
        <time>2017-09-07T13:21:27Z</time>
      </trkpt>
      <trkpt lat="44.32865" lon="1.40522">
        <ele>249.19176589811</ele>
        <time>2017-09-07T13:21:39Z</time>
      </trkpt>
      <trkpt lat="44.32862" lon="1.40511">
        <ele>250.65562316608</ele>
        <time>2017-09-07T13:21:47Z</time>
      </trkpt>
      <trkpt lat="44.32854" lon="1.40504">
        <ele>252.67955236284</ele>
        <time>2017-09-07T13:21:57Z</time>
      </trkpt>
      <trkpt lat="44.32846" lon="1.40503">
        <ele>253.80752013726</ele>
        <time>2017-09-07T13:22:02Z</time>
      </trkpt>
      <trkpt lat="44.32838" lon="1.4051">
        <ele>255.09605574654</ele>
        <time>2017-09-07T13:22:12Z</time>
      </trkpt>
      <trkpt lat="44.32831" lon="1.40514">
        <ele>257.26998310575</ele>
        <time>2017-09-07T13:22:35Z</time>
      </trkpt>
      <trkpt lat="44.32823" lon="1.4051">
        <ele>256.83719947987</ele>
        <time>2017-09-07T13:22:57Z</time>
      </trkpt>
      <trkpt lat="44.32815" lon="1.40505">
        <ele>256.66435152284</ele>
        <time>2017-09-07T13:23:05Z</time>
      </trkpt>
      <trkpt lat="44.32812" lon="1.40494">
        <ele>256.84505538819</ele>
        <time>2017-09-07T13:23:45Z</time>
      </trkpt>
      <trkpt lat="44.32812" lon="1.40482">
        <ele>257.293027822</ele>
        <time>2017-09-07T13:23:54Z</time>
      </trkpt>
      <trkpt lat="44.32817" lon="1.40473">
        <ele>257.87989903268</ele>
        <time>2017-09-07T13:24:02Z</time>
      </trkpt>
      <trkpt lat="44.32823" lon="1.40464">
        <ele>258.29511533264</ele>
        <time>2017-09-07T13:24:08Z</time>
      </trkpt>
      <trkpt lat="44.32829" lon="1.40457">
        <ele>256.35905881789</ele>
        <time>2017-09-07T13:24:58Z</time>
      </trkpt>
      <trkpt lat="44.32835" lon="1.40449">
        <ele>256.31786854874</ele>
        <time>2017-09-07T13:25:05Z</time>
      </trkpt>
      <trkpt lat="44.32843" lon="1.40446">
        <ele>256.59424253476</ele>
        <time>2017-09-07T13:25:14Z</time>
      </trkpt>
      <trkpt lat="44.32849" lon="1.40439">
        <ele>257.38848422142</ele>
        <time>2017-09-07T13:25:22Z</time>
      </trkpt>
      <trkpt lat="44.32853" lon="1.40428">
        <ele>258.18985187807</ele>
        <time>2017-09-07T13:25:30Z</time>
      </trkpt>
      <trkpt lat="44.32848" lon="1.40419">
        <ele>259.24744076462</ele>
        <time>2017-09-07T13:25:38Z</time>
      </trkpt>
      <trkpt lat="44.32843" lon="1.40412">
        <ele>260.04953502967</ele>
        <time>2017-09-07T13:25:44Z</time>
      </trkpt>
      <trkpt lat="44.32836" lon="1.40405">
        <ele>261.20187949036</ele>
        <time>2017-09-07T13:25:52Z</time>
      </trkpt>
      <trkpt lat="44.32828" lon="1.40399">
        <ele>262.133904568</ele>
        <time>2017-09-07T13:25:58Z</time>
      </trkpt>
      <trkpt lat="44.32821" lon="1.40394">
        <ele>263.40398261397</ele>
        <time>2017-09-07T13:26:06Z</time>
      </trkpt>
      <trkpt lat="44.32812" lon="1.40391">
        <ele>264.40363259951</ele>
        <time>2017-09-07T13:26:15Z</time>
      </trkpt>
      <trkpt lat="44.32805" lon="1.40386">
        <ele>264.63777265524</ele>
        <time>2017-09-07T13:26:21Z</time>
      </trkpt>
      <trkpt lat="44.32799" lon="1.40378">
        <ele>265.43302104206</ele>
        <time>2017-09-07T13:26:30Z</time>
      </trkpt>
      <trkpt lat="44.32794" lon="1.40369">
        <ele>265.77959388766</ele>
        <time>2017-09-07T13:26:35Z</time>
      </trkpt>
      <trkpt lat="44.32789" lon="1.40361">
        <ele>266.08889765819</ele>
        <time>2017-09-07T13:26:41Z</time>
      </trkpt>
      <trkpt lat="44.32783" lon="1.40353">
        <ele>266.79357502703</ele>
        <time>2017-09-07T13:26:50Z</time>
      </trkpt>
      <trkpt lat="44.32776" lon="1.40346">
        <ele>267.33035910575</ele>
        <time>2017-09-07T13:26:58Z</time>
      </trkpt>
      <trkpt lat="44.3277" lon="1.40339">
        <ele>267.87825914274</ele>
        <time>2017-09-07T13:27:06Z</time>
      </trkpt>
      <trkpt lat="44.32763" lon="1.40334">
        <ele>268.608513138</ele>
        <time>2017-09-07T13:27:12Z</time>
      </trkpt>
      <trkpt lat="44.32756" lon="1.40328">
        <ele>269.6259657537</ele>
        <time>2017-09-07T13:27:21Z</time>
      </trkpt>
      <trkpt lat="44.3275" lon="1.40319">
        <ele>269.89874978478</ele>
        <time>2017-09-07T13:27:30Z</time>
      </trkpt>
      <trkpt lat="44.32742" lon="1.40313">
        <ele>270.00321030627</ele>
        <time>2017-09-07T13:27:37Z</time>
      </trkpt>
      <trkpt lat="44.32737" lon="1.40305">
        <ele>269.99208775975</ele>
        <time>2017-09-07T13:27:57Z</time>
      </trkpt>
      <trkpt lat="44.32731" lon="1.40299">
        <ele>270.20086644507</ele>
        <time>2017-09-07T13:28:02Z</time>
      </trkpt>
      <trkpt lat="44.32725" lon="1.4029">
        <ele>270.23752396389</ele>
        <time>2017-09-07T13:28:07Z</time>
      </trkpt>
      <trkpt lat="44.3272" lon="1.40281">
        <ele>270.47877639441</ele>
        <time>2017-09-07T13:28:13Z</time>
      </trkpt>
      <trkpt lat="44.32715" lon="1.40273">
        <ele>270.90501458095</ele>
        <time>2017-09-07T13:28:20Z</time>
      </trkpt>
      <trkpt lat="44.32708" lon="1.40265">
        <ele>271.30208937752</ele>
        <time>2017-09-07T13:28:27Z</time>
      </trkpt>
      <trkpt lat="44.327" lon="1.4026">
        <ele>271.76375003692</ele>
        <time>2017-09-07T13:28:33Z</time>
      </trkpt>
      <trkpt lat="44.32692" lon="1.40256">
        <ele>272.0149885804</ele>
        <time>2017-09-07T13:28:42Z</time>
      </trkpt>
      <trkpt lat="44.32685" lon="1.40251">
        <ele>272.51310593344</ele>
        <time>2017-09-07T13:28:48Z</time>
      </trkpt>
      <trkpt lat="44.32677" lon="1.40246">
        <ele>272.70285339744</ele>
        <time>2017-09-07T13:28:55Z</time>
      </trkpt>
      <trkpt lat="44.32669" lon="1.40243">
        <ele>273.25524300426</ele>
        <time>2017-09-07T13:29:03Z</time>
      </trkpt>
      <trkpt lat="44.32661" lon="1.40239">
        <ele>273.60720916736</ele>
        <time>2017-09-07T13:29:11Z</time>
      </trkpt>
      <trkpt lat="44.32653" lon="1.40235">
        <ele>273.90472116382</ele>
        <time>2017-09-07T13:29:19Z</time>
      </trkpt>
      <trkpt lat="44.32645" lon="1.40231">
        <ele>274.5382831503</ele>
        <time>2017-09-07T13:29:27Z</time>
      </trkpt>
      <trkpt lat="44.32638" lon="1.40225">
        <ele>274.7928785605</ele>
        <time>2017-09-07T13:29:35Z</time>
      </trkpt>
      <trkpt lat="44.32631" lon="1.40219">
        <ele>274.85921471868</ele>
        <time>2017-09-07T13:29:42Z</time>
      </trkpt>
      <trkpt lat="44.32623" lon="1.40214">
        <ele>275.17707678638</ele>
        <time>2017-09-07T13:29:49Z</time>
      </trkpt>
      <trkpt lat="44.32615" lon="1.4021">
        <ele>275.43274958011</ele>
        <time>2017-09-07T13:29:55Z</time>
      </trkpt>
      <trkpt lat="44.32608" lon="1.40206">
        <ele>275.07386847267</ele>
        <time>2017-09-07T13:30:02Z</time>
      </trkpt>
      <trkpt lat="44.32601" lon="1.40198">
        <ele>275.23452869655</ele>
        <time>2017-09-07T13:30:11Z</time>
      </trkpt>
      <trkpt lat="44.32593" lon="1.40193">
        <ele>275.35581371916</ele>
        <time>2017-09-07T13:30:18Z</time>
      </trkpt>
      <trkpt lat="44.32585" lon="1.40187">
        <ele>275.57114513091</ele>
        <time>2017-09-07T13:30:26Z</time>
      </trkpt>
      <trkpt lat="44.32579" lon="1.40179">
        <ele>274.96911505022</ele>
        <time>2017-09-07T13:30:33Z</time>
      </trkpt>
      <trkpt lat="44.32574" lon="1.40171">
        <ele>274.25434382892</ele>
        <time>2017-09-07T13:30:38Z</time>
      </trkpt>
      <trkpt lat="44.32569" lon="1.40163">
        <ele>273.50533303919</ele>
        <time>2017-09-07T13:30:49Z</time>
      </trkpt>
      <trkpt lat="44.32564" lon="1.40153">
        <ele>272.6895915295</ele>
        <time>2017-09-07T13:30:58Z</time>
      </trkpt>
      <trkpt lat="44.32558" lon="1.40144">
        <ele>272.01888858754</ele>
        <time>2017-09-07T13:31:04Z</time>
      </trkpt>
      <trkpt lat="44.32552" lon="1.40136">
        <ele>271.24121284407</ele>
        <time>2017-09-07T13:31:11Z</time>
      </trkpt>
      <trkpt lat="44.32544" lon="1.4013">
        <ele>269.99538562803</ele>
        <time>2017-09-07T13:31:18Z</time>
      </trkpt>
      <trkpt lat="44.32537" lon="1.40126">
        <ele>269.26474911184</ele>
        <time>2017-09-07T13:31:27Z</time>
      </trkpt>
      <trkpt lat="44.3253" lon="1.40121">
        <ele>269.25321575374</ele>
        <time>2017-09-07T13:31:34Z</time>
      </trkpt>
      <trkpt lat="44.32522" lon="1.40117">
        <ele>268.74220440514</ele>
        <time>2017-09-07T13:31:40Z</time>
      </trkpt>
      <trkpt lat="44.32514" lon="1.40116">
        <ele>267.80057119382</ele>
        <time>2017-09-07T13:31:47Z</time>
      </trkpt>
      <trkpt lat="44.32507" lon="1.40113">
        <ele>266.91609564501</ele>
        <time>2017-09-07T13:31:59Z</time>
      </trkpt>
      <trkpt lat="44.32499" lon="1.40107">
        <ele>266.73874101397</ele>
        <time>2017-09-07T13:32:05Z</time>
      </trkpt>
      <trkpt lat="44.32491" lon="1.40103">
        <ele>266.87993666264</ele>
        <time>2017-09-07T13:32:13Z</time>
      </trkpt>
      <trkpt lat="44.32486" lon="1.40094">
        <ele>266.76916221097</ele>
        <time>2017-09-07T13:32:21Z</time>
      </trkpt>
      <trkpt lat="44.32478" lon="1.4009">
        <ele>266.59112732664</ele>
        <time>2017-09-07T13:32:28Z</time>
      </trkpt>
      <trkpt lat="44.3247" lon="1.40085">
        <ele>266.41314777367</ele>
        <time>2017-09-07T13:32:37Z</time>
      </trkpt>
      <trkpt lat="44.32464" lon="1.40078">
        <ele>265.99732389219</ele>
        <time>2017-09-07T13:32:45Z</time>
      </trkpt>
      <trkpt lat="44.32457" lon="1.4007">
        <ele>266.02856109628</ele>
        <time>2017-09-07T13:32:52Z</time>
      </trkpt>
      <trkpt lat="44.3245" lon="1.40064">
        <ele>265.7895269005</ele>
        <time>2017-09-07T13:33:00Z</time>
      </trkpt>
      <trkpt lat="44.32442" lon="1.40058">
        <ele>265.70946385061</ele>
        <time>2017-09-07T13:33:08Z</time>
      </trkpt>
      <trkpt lat="44.32434" lon="1.40053">
        <ele>265.61370729276</ele>
        <time>2017-09-07T13:33:15Z</time>
      </trkpt>
      <trkpt lat="44.32427" lon="1.40049">
        <ele>265.69016499931</ele>
        <time>2017-09-07T13:33:21Z</time>
      </trkpt>
      <trkpt lat="44.3242" lon="1.40047">
        <ele>265.60408202141</ele>
        <time>2017-09-07T13:33:29Z</time>
      </trkpt>
      <trkpt lat="44.32411" lon="1.40046">
        <ele>266.21812600833</ele>
        <time>2017-09-07T13:33:36Z</time>
      </trkpt>
      <trkpt lat="44.32403" lon="1.40044">
        <ele>266.34161107805</ele>
        <time>2017-09-07T13:33:44Z</time>
      </trkpt>
      <trkpt lat="44.32395" lon="1.40041">
        <ele>266.38590054503</ele>
        <time>2017-09-07T13:33:52Z</time>
      </trkpt>
      <trkpt lat="44.32387" lon="1.40037">
        <ele>266.38730306414</ele>
        <time>2017-09-07T13:34:00Z</time>
      </trkpt>
      <trkpt lat="44.3238" lon="1.4003">
        <ele>266.51753055365</ele>
        <time>2017-09-07T13:34:07Z</time>
      </trkpt>
      <trkpt lat="44.32374" lon="1.40021">
        <ele>267.46076407288</ele>
        <time>2017-09-07T13:34:15Z</time>
      </trkpt>
      <trkpt lat="44.32367" lon="1.40015">
        <ele>267.98342161339</ele>
        <time>2017-09-07T13:34:21Z</time>
      </trkpt>
      <trkpt lat="44.3236" lon="1.40008">
        <ele>269.27674418861</ele>
        <time>2017-09-07T13:34:30Z</time>
      </trkpt>
      <trkpt lat="44.32355" lon="1.40001">
        <ele>269.98991428184</ele>
        <time>2017-09-07T13:34:37Z</time>
      </trkpt>
      <trkpt lat="44.32348" lon="1.39994">
        <ele>270.51573833738</ele>
        <time>2017-09-07T13:34:44Z</time>
      </trkpt>
      <trkpt lat="44.32341" lon="1.39987">
        <ele>271.14120129026</ele>
        <time>2017-09-07T13:34:52Z</time>
      </trkpt>
      <trkpt lat="44.32336" lon="1.39978">
        <ele>271.35861602034</ele>
        <time>2017-09-07T13:34:59Z</time>
      </trkpt>
      <trkpt lat="44.32331" lon="1.3997">
        <ele>271.42408341292</ele>
        <time>2017-09-07T13:35:05Z</time>
      </trkpt>
      <trkpt lat="44.32325" lon="1.39962">
        <ele>272.01682398349</ele>
        <time>2017-09-07T13:35:11Z</time>
      </trkpt>
      <trkpt lat="44.32319" lon="1.39954">
        <ele>273.05403301958</ele>
        <time>2017-09-07T13:35:18Z</time>
      </trkpt>
      <trkpt lat="44.32312" lon="1.39947">
        <ele>273.56925946089</ele>
        <time>2017-09-07T13:35:26Z</time>
      </trkpt>
      <trkpt lat="44.32306" lon="1.39939">
        <ele>273.79372915371</ele>
        <time>2017-09-07T13:35:33Z</time>
      </trkpt>
      <trkpt lat="44.32302" lon="1.39929">
        <ele>274.00824077873</ele>
        <time>2017-09-07T13:35:40Z</time>
      </trkpt>
      <trkpt lat="44.32298" lon="1.39919">
        <ele>274.25284888351</ele>
        <time>2017-09-07T13:35:47Z</time>
      </trkpt>
      <trkpt lat="44.32295" lon="1.39907">
        <ele>274.82293615892</ele>
        <time>2017-09-07T13:35:55Z</time>
      </trkpt>
      <trkpt lat="44.32291" lon="1.39897">
        <ele>275.12832510725</ele>
        <time>2017-09-07T13:36:02Z</time>
      </trkpt>
      <trkpt lat="44.32284" lon="1.3989">
        <ele>275.46136424713</ele>
        <time>2017-09-07T13:36:10Z</time>
      </trkpt>
      <trkpt lat="44.32275" lon="1.3989">
        <ele>275.92819024563</ele>
        <time>2017-09-07T13:36:18Z</time>
      </trkpt>
      <trkpt lat="44.32267" lon="1.3989">
        <ele>275.9417669924</ele>
        <time>2017-09-07T13:36:24Z</time>
      </trkpt>
      <trkpt lat="44.32259" lon="1.39888">
        <ele>275.65812427644</ele>
        <time>2017-09-07T13:36:31Z</time>
      </trkpt>
      <trkpt lat="44.3225" lon="1.39892">
        <ele>275.31146814663</ele>
        <time>2017-09-07T13:36:39Z</time>
      </trkpt>
      <trkpt lat="44.32242" lon="1.39895">
        <ele>275.32079724424</ele>
        <time>2017-09-07T13:36:45Z</time>
      </trkpt>
      <trkpt lat="44.32234" lon="1.39897">
        <ele>275.49200683808</ele>
        <time>2017-09-07T13:36:52Z</time>
      </trkpt>
      <trkpt lat="44.32226" lon="1.39901">
        <ele>275.67757837904</ele>
        <time>2017-09-07T13:36:59Z</time>
      </trkpt>
      <trkpt lat="44.32218" lon="1.39905">
        <ele>275.56820133658</ele>
        <time>2017-09-07T13:37:05Z</time>
      </trkpt>
      <trkpt lat="44.3221" lon="1.39907">
        <ele>275.6407779145</ele>
        <time>2017-09-07T13:37:11Z</time>
      </trkpt>
      <trkpt lat="44.32203" lon="1.3991">
        <ele>275.56095735912</ele>
        <time>2017-09-07T13:37:19Z</time>
      </trkpt>
      <trkpt lat="44.32195" lon="1.39915">
        <ele>275.63041320132</ele>
        <time>2017-09-07T13:37:26Z</time>
      </trkpt>
      <trkpt lat="44.32187" lon="1.3992">
        <ele>275.76555538487</ele>
        <time>2017-09-07T13:37:33Z</time>
      </trkpt>
      <trkpt lat="44.3218" lon="1.39923">
        <ele>275.54261614051</ele>
        <time>2017-09-07T13:37:39Z</time>
      </trkpt>
      <trkpt lat="44.32173" lon="1.3993">
        <ele>275.38909375847</ele>
        <time>2017-09-07T13:37:46Z</time>
      </trkpt>
      <trkpt lat="44.32166" lon="1.39936">
        <ele>275.64749246629</ele>
        <time>2017-09-07T13:37:53Z</time>
      </trkpt>
      <trkpt lat="44.32158" lon="1.39941">
        <ele>275.57109486253</ele>
        <time>2017-09-07T13:37:59Z</time>
      </trkpt>
      <trkpt lat="44.32151" lon="1.39949">
        <ele>275.42836133223</ele>
        <time>2017-09-07T13:38:06Z</time>
      </trkpt>
      <trkpt lat="44.32143" lon="1.39954">
        <ele>274.97316260728</ele>
        <time>2017-09-07T13:38:30Z</time>
      </trkpt>
      <trkpt lat="44.32137" lon="1.39959">
        <ele>274.80577082362</ele>
        <time>2017-09-07T13:38:45Z</time>
      </trkpt>
      <trkpt lat="44.32131" lon="1.39967">
        <ele>274.53651690145</ele>
        <time>2017-09-07T13:38:53Z</time>
      </trkpt>
      <trkpt lat="44.32124" lon="1.39974">
        <ele>274.04085240324</ele>
        <time>2017-09-07T13:39:00Z</time>
      </trkpt>
      <trkpt lat="44.32118" lon="1.39982">
        <ele>273.51495059978</ele>
        <time>2017-09-07T13:39:07Z</time>
      </trkpt>
      <trkpt lat="44.32113" lon="1.39991">
        <ele>272.47319506776</ele>
        <time>2017-09-07T13:39:21Z</time>
      </trkpt>
      <trkpt lat="44.3211" lon="1.40001">
        <ele>272.03690063907</ele>
        <time>2017-09-07T13:39:28Z</time>
      </trkpt>
      <trkpt lat="44.32105" lon="1.40011">
        <ele>271.93620725474</ele>
        <time>2017-09-07T13:39:34Z</time>
      </trkpt>
      <trkpt lat="44.321" lon="1.4002">
        <ele>272.14156479241</ele>
        <time>2017-09-07T13:39:40Z</time>
      </trkpt>
      <trkpt lat="44.32095" lon="1.40029">
        <ele>272.25771646814</ele>
        <time>2017-09-07T13:39:48Z</time>
      </trkpt>
      <trkpt lat="44.32091" lon="1.4004">
        <ele>273.01781032737</ele>
        <time>2017-09-07T13:39:55Z</time>
      </trkpt>
      <trkpt lat="44.32086" lon="1.40049">
        <ele>272.62252304185</ele>
        <time>2017-09-07T13:40:05Z</time>
      </trkpt>
      <trkpt lat="44.32081" lon="1.40059">
        <ele>272.18096858997</ele>
        <time>2017-09-07T13:40:13Z</time>
      </trkpt>
      <trkpt lat="44.32077" lon="1.40069">
        <ele>271.98560288319</ele>
        <time>2017-09-07T13:40:19Z</time>
      </trkpt>
      <trkpt lat="44.32073" lon="1.4008">
        <ele>271.72396252405</ele>
        <time>2017-09-07T13:40:27Z</time>
      </trkpt>
      <trkpt lat="44.32068" lon="1.4009">
        <ele>271.57044433523</ele>
        <time>2017-09-07T13:40:34Z</time>
      </trkpt>
      <trkpt lat="44.32062" lon="1.40099">
        <ele>270.8436690403</ele>
        <time>2017-09-07T13:40:41Z</time>
      </trkpt>
      <trkpt lat="44.32056" lon="1.40106">
        <ele>270.55048293371</ele>
        <time>2017-09-07T13:40:47Z</time>
      </trkpt>
      <trkpt lat="44.32049" lon="1.40112">
        <ele>270.44461772204</ele>
        <time>2017-09-07T13:40:52Z</time>
      </trkpt>
      <trkpt lat="44.32043" lon="1.40119">
        <ele>270.55847582159</ele>
        <time>2017-09-07T13:40:59Z</time>
      </trkpt>
      <trkpt lat="44.32035" lon="1.40125">
        <ele>270.41479268473</ele>
        <time>2017-09-07T13:41:06Z</time>
      </trkpt>
      <trkpt lat="44.32029" lon="1.40133">
        <ele>270.2503729357</ele>
        <time>2017-09-07T13:41:13Z</time>
      </trkpt>
      <trkpt lat="44.32023" lon="1.40142">
        <ele>269.92218390219</ele>
        <time>2017-09-07T13:41:21Z</time>
      </trkpt>
      <trkpt lat="44.32016" lon="1.40149">
        <ele>269.31846886441</ele>
        <time>2017-09-07T13:41:28Z</time>
      </trkpt>
      <trkpt lat="44.3201" lon="1.40156">
        <ele>269.08163774849</ele>
        <time>2017-09-07T13:41:35Z</time>
      </trkpt>
      <trkpt lat="44.32002" lon="1.40163">
        <ele>269.18193068452</ele>
        <time>2017-09-07T13:41:42Z</time>
      </trkpt>
      <trkpt lat="44.31996" lon="1.4017">
        <ele>268.97637976576</ele>
        <time>2017-09-07T13:41:48Z</time>
      </trkpt>
      <trkpt lat="44.31988" lon="1.40176">
        <ele>268.62862239793</ele>
        <time>2017-09-07T13:41:55Z</time>
      </trkpt>
      <trkpt lat="44.31982" lon="1.40184">
        <ele>267.89855507666</ele>
        <time>2017-09-07T13:42:04Z</time>
      </trkpt>
      <trkpt lat="44.31975" lon="1.40191">
        <ele>267.47395948615</ele>
        <time>2017-09-07T13:42:09Z</time>
      </trkpt>
      <trkpt lat="44.31968" lon="1.40196">
        <ele>266.81383698307</ele>
        <time>2017-09-07T13:42:15Z</time>
      </trkpt>
      <trkpt lat="44.31961" lon="1.40203">
        <ele>266.24173751804</ele>
        <time>2017-09-07T13:42:22Z</time>
      </trkpt>
      <trkpt lat="44.31955" lon="1.40212">
        <ele>265.88933727673</ele>
        <time>2017-09-07T13:42:28Z</time>
      </trkpt>
      <trkpt lat="44.3195" lon="1.40221">
        <ele>265.43112383364</ele>
        <time>2017-09-07T13:42:35Z</time>
      </trkpt>
      <trkpt lat="44.31944" lon="1.4023">
        <ele>264.68655459107</ele>
        <time>2017-09-07T13:42:43Z</time>
      </trkpt>
      <trkpt lat="44.31938" lon="1.40237">
        <ele>264.42310118512</ele>
        <time>2017-09-07T13:42:49Z</time>
      </trkpt>
      <trkpt lat="44.31931" lon="1.40243">
        <ele>264.53745530641</ele>
        <time>2017-09-07T13:42:56Z</time>
      </trkpt>
      <trkpt lat="44.31924" lon="1.40247">
        <ele>264.63587037897</ele>
        <time>2017-09-07T13:43:03Z</time>
      </trkpt>
      <trkpt lat="44.31917" lon="1.40255">
        <ele>264.43967305635</ele>
        <time>2017-09-07T13:43:09Z</time>
      </trkpt>
      <trkpt lat="44.3191" lon="1.40262">
        <ele>264.02025257428</ele>
        <time>2017-09-07T13:43:16Z</time>
      </trkpt>
      <trkpt lat="44.31904" lon="1.40271">
        <ele>264.16852088398</ele>
        <time>2017-09-07T13:43:22Z</time>
      </trkpt>
      <trkpt lat="44.31898" lon="1.40279">
        <ele>264.2360919895</ele>
        <time>2017-09-07T13:43:30Z</time>
      </trkpt>
      <trkpt lat="44.31893" lon="1.40288">
        <ele>263.74845140494</ele>
        <time>2017-09-07T13:43:37Z</time>
      </trkpt>
      <trkpt lat="44.31887" lon="1.40295">
        <ele>263.34427784892</ele>
        <time>2017-09-07T13:43:43Z</time>
      </trkpt>
      <trkpt lat="44.31882" lon="1.40305">
        <ele>262.73331053998</ele>
        <time>2017-09-07T13:43:50Z</time>
      </trkpt>
      <trkpt lat="44.31875" lon="1.40312">
        <ele>262.42178996436</ele>
        <time>2017-09-07T13:43:57Z</time>
      </trkpt>
      <trkpt lat="44.3187" lon="1.40319">
        <ele>261.78668438482</ele>
        <time>2017-09-07T13:44:03Z</time>
      </trkpt>
      <trkpt lat="44.31864" lon="1.40326">
        <ele>260.81634971314</ele>
        <time>2017-09-07T13:44:09Z</time>
      </trkpt>
      <trkpt lat="44.31859" lon="1.40334">
        <ele>260.50571999307</ele>
        <time>2017-09-07T13:44:15Z</time>
      </trkpt>
      <trkpt lat="44.31853" lon="1.40343">
        <ele>259.69198456191</ele>
        <time>2017-09-07T13:44:23Z</time>
      </trkpt>
      <trkpt lat="44.31847" lon="1.40352">
        <ele>258.99014127307</ele>
        <time>2017-09-07T13:44:30Z</time>
      </trkpt>
      <trkpt lat="44.31841" lon="1.4036">
        <ele>258.36651755239</ele>
        <time>2017-09-07T13:44:36Z</time>
      </trkpt>
      <trkpt lat="44.31835" lon="1.40369">
        <ele>257.57219839125</ele>
        <time>2017-09-07T13:44:43Z</time>
      </trkpt>
      <trkpt lat="44.3183" lon="1.40378">
        <ele>256.86138646325</ele>
        <time>2017-09-07T13:44:51Z</time>
      </trkpt>
      <trkpt lat="44.31823" lon="1.40386">
        <ele>255.93899388809</ele>
        <time>2017-09-07T13:44:59Z</time>
      </trkpt>
      <trkpt lat="44.31816" lon="1.40394">
        <ele>255.58824253965</ele>
        <time>2017-09-07T13:45:05Z</time>
      </trkpt>
      <trkpt lat="44.3181" lon="1.40401">
        <ele>255.51837052355</ele>
        <time>2017-09-07T13:45:12Z</time>
      </trkpt>
      <trkpt lat="44.31802" lon="1.40408">
        <ele>255.2129786151</ele>
        <time>2017-09-07T13:45:19Z</time>
      </trkpt>
      <trkpt lat="44.31795" lon="1.40415">
        <ele>254.75866844361</ele>
        <time>2017-09-07T13:45:26Z</time>
      </trkpt>
      <trkpt lat="44.31788" lon="1.40421">
        <ele>254.39788800288</ele>
        <time>2017-09-07T13:45:33Z</time>
      </trkpt>
      <trkpt lat="44.31783" lon="1.4043">
        <ele>254.12644037766</ele>
        <time>2017-09-07T13:45:39Z</time>
      </trkpt>
      <trkpt lat="44.31776" lon="1.40438">
        <ele>254.2195992232</ele>
        <time>2017-09-07T13:45:45Z</time>
      </trkpt>
      <trkpt lat="44.31771" lon="1.40447">
        <ele>253.46057126539</ele>
        <time>2017-09-07T13:45:55Z</time>
      </trkpt>
      <trkpt lat="44.31764" lon="1.40453">
        <ele>253.15000677693</ele>
        <time>2017-09-07T13:46:03Z</time>
      </trkpt>
      <trkpt lat="44.31758" lon="1.40461">
        <ele>252.4588407099</ele>
        <time>2017-09-07T13:46:10Z</time>
      </trkpt>
      <trkpt lat="44.31751" lon="1.40468">
        <ele>252.4251570692</ele>
        <time>2017-09-07T13:46:17Z</time>
      </trkpt>
      <trkpt lat="44.31745" lon="1.40476">
        <ele>251.88676834527</ele>
        <time>2017-09-07T13:46:24Z</time>
      </trkpt>
      <trkpt lat="44.31739" lon="1.40484">
        <ele>251.5328701462</ele>
        <time>2017-09-07T13:46:31Z</time>
      </trkpt>
      <trkpt lat="44.31733" lon="1.40494">
        <ele>250.93271158794</ele>
        <time>2017-09-07T13:46:39Z</time>
      </trkpt>
      <trkpt lat="44.31727" lon="1.40502">
        <ele>250.55799622765</ele>
        <time>2017-09-07T13:46:46Z</time>
      </trkpt>
      <trkpt lat="44.3172" lon="1.40509">
        <ele>250.14176330579</ele>
        <time>2017-09-07T13:46:54Z</time>
      </trkpt>
      <trkpt lat="44.31714" lon="1.40517">
        <ele>249.98778248752</ele>
        <time>2017-09-07T13:47:01Z</time>
      </trkpt>
      <trkpt lat="44.31708" lon="1.40526">
        <ele>249.43659217985</ele>
        <time>2017-09-07T13:47:08Z</time>
      </trkpt>
      <trkpt lat="44.31703" lon="1.40534">
        <ele>248.89499151269</ele>
        <time>2017-09-07T13:47:15Z</time>
      </trkpt>
      <trkpt lat="44.31697" lon="1.40543">
        <ele>248.43113918979</ele>
        <time>2017-09-07T13:47:22Z</time>
      </trkpt>
      <trkpt lat="44.3169" lon="1.40549">
        <ele>247.72514672004</ele>
        <time>2017-09-07T13:47:31Z</time>
      </trkpt>
      <trkpt lat="44.31683" lon="1.40557">
        <ele>247.10464245806</ele>
        <time>2017-09-07T13:47:37Z</time>
      </trkpt>
      <trkpt lat="44.31678" lon="1.40566">
        <ele>245.81524479722</ele>
        <time>2017-09-07T13:47:49Z</time>
      </trkpt>
      <trkpt lat="44.31674" lon="1.40576">
        <ele>243.53431051142</ele>
        <time>2017-09-07T13:48:31Z</time>
      </trkpt>
      <trkpt lat="44.31667" lon="1.40582">
        <ele>239.90863214238</ele>
        <time>2017-09-07T13:48:57Z</time>
      </trkpt>
      <trkpt lat="44.31659" lon="1.40587">
        <ele>238.45048840705</ele>
        <time>2017-09-07T13:49:39Z</time>
      </trkpt>
      <trkpt lat="44.31652" lon="1.40593">
        <ele>238.39791546147</ele>
        <time>2017-09-07T13:49:46Z</time>
      </trkpt>
      <trkpt lat="44.31645" lon="1.40599">
        <ele>238.56027580355</ele>
        <time>2017-09-07T13:49:54Z</time>
      </trkpt>
      <trkpt lat="44.31638" lon="1.40607">
        <ele>238.67919531078</ele>
        <time>2017-09-07T13:50:30Z</time>
      </trkpt>
      <trkpt lat="44.31631" lon="1.40614">
        <ele>238.26803210168</ele>
        <time>2017-09-07T13:50:41Z</time>
      </trkpt>
      <trkpt lat="44.31623" lon="1.40618">
        <ele>237.98148843532</ele>
        <time>2017-09-07T13:50:49Z</time>
      </trkpt>
      <trkpt lat="44.31625" lon="1.40608">
        <ele>237.51505221183</ele>
        <time>2017-09-07T13:51:02Z</time>
      </trkpt>
      <trkpt lat="44.31628" lon="1.40597">
        <ele>237.14780377831</ele>
        <time>2017-09-07T13:51:15Z</time>
      </trkpt>
      <trkpt lat="44.31633" lon="1.40586">
        <ele>235.94512582264</ele>
        <time>2017-09-07T13:51:31Z</time>
      </trkpt>
      <trkpt lat="44.31627" lon="1.40595">
        <ele>231.23297850556</ele>
        <time>2017-09-07T13:52:18Z</time>
      </trkpt>
      <trkpt lat="44.31618" lon="1.40598">
        <ele>231.58838653116</ele>
        <time>2017-09-07T13:52:29Z</time>
      </trkpt>
      <trkpt lat="44.31611" lon="1.40604">
        <ele>231.26005286921</ele>
        <time>2017-09-07T13:52:40Z</time>
      </trkpt>
      <trkpt lat="44.31603" lon="1.4061">
        <ele>230.78947769671</ele>
        <time>2017-09-07T13:52:48Z</time>
      </trkpt>
      <trkpt lat="44.31596" lon="1.40616">
        <ele>230.53811833225</ele>
        <time>2017-09-07T13:52:57Z</time>
      </trkpt>
      <trkpt lat="44.31591" lon="1.40624">
        <ele>230.33671438073</ele>
        <time>2017-09-07T13:53:05Z</time>
      </trkpt>
      <trkpt lat="44.31585" lon="1.40632">
        <ele>230.07533401023</ele>
        <time>2017-09-07T13:53:13Z</time>
      </trkpt>
      <trkpt lat="44.31581" lon="1.40643">
        <ele>230.25521094466</ele>
        <time>2017-09-07T13:53:24Z</time>
      </trkpt>
      <trkpt lat="44.31577" lon="1.40654">
        <ele>230.15508219027</ele>
        <time>2017-09-07T13:53:33Z</time>
      </trkpt>
      <trkpt lat="44.31577" lon="1.40666">
        <ele>229.65488588761</ele>
        <time>2017-09-07T13:53:42Z</time>
      </trkpt>
      <trkpt lat="44.31576" lon="1.40678">
        <ele>228.85497217255</ele>
        <time>2017-09-07T13:53:51Z</time>
      </trkpt>
      <trkpt lat="44.31581" lon="1.40689">
        <ele>227.73560211645</ele>
        <time>2017-09-07T13:54:01Z</time>
      </trkpt>
      <trkpt lat="44.31586" lon="1.40697">
        <ele>227.35420925822</ele>
        <time>2017-09-07T13:54:09Z</time>
      </trkpt>
      <trkpt lat="44.3159" lon="1.40707">
        <ele>227.31338076874</ele>
        <time>2017-09-07T13:54:17Z</time>
      </trkpt>
      <trkpt lat="44.31594" lon="1.40717">
        <ele>226.70869043036</ele>
        <time>2017-09-07T13:54:25Z</time>
      </trkpt>
      <trkpt lat="44.31597" lon="1.40727">
        <ele>226.00800732058</ele>
        <time>2017-09-07T13:54:32Z</time>
      </trkpt>
      <trkpt lat="44.31599" lon="1.40739">
        <ele>225.19555623023</ele>
        <time>2017-09-07T13:54:43Z</time>
      </trkpt>
      <trkpt lat="44.31604" lon="1.40748">
        <ele>224.57638532534</ele>
        <time>2017-09-07T13:54:50Z</time>
      </trkpt>
      <trkpt lat="44.31606" lon="1.4076">
        <ele>224.03255694297</ele>
        <time>2017-09-07T13:54:58Z</time>
      </trkpt>
      <trkpt lat="44.31609" lon="1.40771">
        <ele>223.26287435693</ele>
        <time>2017-09-07T13:55:06Z</time>
      </trkpt>
      <trkpt lat="44.31611" lon="1.40783">
        <ele>222.33297685983</ele>
        <time>2017-09-07T13:55:14Z</time>
      </trkpt>
      <trkpt lat="44.31611" lon="1.40795">
        <ele>221.14258568813</ele>
        <time>2017-09-07T13:55:24Z</time>
      </trkpt>
      <trkpt lat="44.31604" lon="1.40802">
        <ele>219.2732804602</ele>
        <time>2017-09-07T13:55:35Z</time>
      </trkpt>
      <trkpt lat="44.31596" lon="1.40794">
        <ele>218.54257156209</ele>
        <time>2017-09-07T13:55:42Z</time>
      </trkpt>
      <trkpt lat="44.31593" lon="1.40783">
        <ele>217.96541536455</ele>
        <time>2017-09-07T13:55:49Z</time>
      </trkpt>
      <trkpt lat="44.3159" lon="1.40774">
        <ele>217.00127892816</ele>
        <time>2017-09-07T13:55:57Z</time>
      </trkpt>
      <trkpt lat="44.31583" lon="1.40769">
        <ele>215.90831689344</ele>
        <time>2017-09-07T13:56:04Z</time>
      </trkpt>
      <trkpt lat="44.31575" lon="1.40762">
        <ele>215.06014469751</ele>
        <time>2017-09-07T13:56:09Z</time>
      </trkpt>
      <trkpt lat="44.31568" lon="1.40754">
        <ele>214.45957465675</ele>
        <time>2017-09-07T13:56:19Z</time>
      </trkpt>
      <trkpt lat="44.31564" lon="1.40744">
        <ele>214.41879948422</ele>
        <time>2017-09-07T13:56:27Z</time>
      </trkpt>
      <trkpt lat="44.3156" lon="1.40735">
        <ele>213.71659119428</ele>
        <time>2017-09-07T13:56:36Z</time>
      </trkpt>
      <trkpt lat="44.31555" lon="1.40724">
        <ele>213.71408695577</ele>
        <time>2017-09-07T13:56:42Z</time>
      </trkpt>
      <trkpt lat="44.31552" lon="1.40713">
        <ele>213.4587493356</ele>
        <time>2017-09-07T13:56:50Z</time>
      </trkpt>
      <trkpt lat="44.31548" lon="1.40702">
        <ele>213.0183951098</ele>
        <time>2017-09-07T13:56:56Z</time>
      </trkpt>
      <trkpt lat="44.31543" lon="1.40692">
        <ele>212.80858551707</ele>
        <time>2017-09-07T13:57:04Z</time>
      </trkpt>
      <trkpt lat="44.31538" lon="1.40682">
        <ele>211.60961384164</ele>
        <time>2017-09-07T13:57:13Z</time>
      </trkpt>
      <trkpt lat="44.31533" lon="1.40673">
        <ele>210.92794697259</ele>
        <time>2017-09-07T13:57:21Z</time>
      </trkpt>
      <trkpt lat="44.31528" lon="1.40664">
        <ele>210.88568991356</ele>
        <time>2017-09-07T13:57:27Z</time>
      </trkpt>
      <trkpt lat="44.31523" lon="1.40656">
        <ele>211.16977195829</ele>
        <time>2017-09-07T13:57:34Z</time>
      </trkpt>
      <trkpt lat="44.31518" lon="1.40646">
        <ele>211.3798240662</ele>
        <time>2017-09-07T13:57:41Z</time>
      </trkpt>
      <trkpt lat="44.31512" lon="1.40637">
        <ele>211.13439112053</ele>
        <time>2017-09-07T13:57:49Z</time>
      </trkpt>
      <trkpt lat="44.31507" lon="1.40629">
        <ele>210.65492431949</ele>
        <time>2017-09-07T13:57:56Z</time>
      </trkpt>
      <trkpt lat="44.31501" lon="1.4062">
        <ele>210.05958671508</ele>
        <time>2017-09-07T13:58:04Z</time>
      </trkpt>
      <trkpt lat="44.31496" lon="1.40611">
        <ele>209.04378906616</ele>
        <time>2017-09-07T13:58:12Z</time>
      </trkpt>
      <trkpt lat="44.31489" lon="1.40602">
        <ele>208.23329040631</ele>
        <time>2017-09-07T13:58:20Z</time>
      </trkpt>
      <trkpt lat="44.31484" lon="1.40593">
        <ele>207.79776531976</ele>
        <time>2017-09-07T13:58:30Z</time>
      </trkpt>
      <trkpt lat="44.31478" lon="1.40586">
        <ele>207.40226716644</ele>
        <time>2017-09-07T13:58:36Z</time>
      </trkpt>
      <trkpt lat="44.31472" lon="1.40578">
        <ele>206.88731281656</ele>
        <time>2017-09-07T13:58:45Z</time>
      </trkpt>
      <trkpt lat="44.31466" lon="1.4057">
        <ele>206.39463827489</ele>
        <time>2017-09-07T13:58:51Z</time>
      </trkpt>
      <trkpt lat="44.31459" lon="1.40563">
        <ele>206.0394173</ele>
        <time>2017-09-07T13:58:57Z</time>
      </trkpt>
      <trkpt lat="44.31453" lon="1.40554">
        <ele>205.7410472613</ele>
        <time>2017-09-07T13:59:04Z</time>
      </trkpt>
      <trkpt lat="44.31447" lon="1.40547">
        <ele>205.3892374276</ele>
        <time>2017-09-07T13:59:11Z</time>
      </trkpt>
      <trkpt lat="44.31441" lon="1.4054">
        <ele>204.95709385621</ele>
        <time>2017-09-07T13:59:20Z</time>
      </trkpt>
      <trkpt lat="44.31435" lon="1.40532">
        <ele>204.40455765951</ele>
        <time>2017-09-07T13:59:26Z</time>
      </trkpt>
      <trkpt lat="44.31427" lon="1.40528">
        <ele>204.17752903529</ele>
        <time>2017-09-07T13:59:32Z</time>
      </trkpt>
      <trkpt lat="44.3142" lon="1.40521">
        <ele>203.87633866029</ele>
        <time>2017-09-07T13:59:41Z</time>
      </trkpt>
      <trkpt lat="44.31414" lon="1.40513">
        <ele>203.95335456376</ele>
        <time>2017-09-07T13:59:50Z</time>
      </trkpt>
      <trkpt lat="44.31407" lon="1.40506">
        <ele>204.02156060205</ele>
        <time>2017-09-07T13:59:55Z</time>
      </trkpt>
      <trkpt lat="44.314" lon="1.405">
        <ele>203.90487192031</ele>
        <time>2017-09-07T14:00:02Z</time>
      </trkpt>
      <trkpt lat="44.31393" lon="1.40494">
        <ele>203.70524772692</ele>
        <time>2017-09-07T14:00:09Z</time>
      </trkpt>
      <trkpt lat="44.31385" lon="1.40489">
        <ele>203.24753533333</ele>
        <time>2017-09-07T14:00:16Z</time>
      </trkpt>
      <trkpt lat="44.31378" lon="1.40483">
        <ele>203.01906420664</ele>
        <time>2017-09-07T14:00:24Z</time>
      </trkpt>
      <trkpt lat="44.31371" lon="1.40479">
        <ele>202.76650362426</ele>
        <time>2017-09-07T14:00:30Z</time>
      </trkpt>
      <trkpt lat="44.31364" lon="1.40472">
        <ele>202.19755953301</ele>
        <time>2017-09-07T14:00:36Z</time>
      </trkpt>
      <trkpt lat="44.31357" lon="1.40469">
        <ele>202.04863132667</ele>
        <time>2017-09-07T14:00:43Z</time>
      </trkpt>
      <trkpt lat="44.31349" lon="1.40464">
        <ele>201.11952861753</ele>
        <time>2017-09-07T14:00:51Z</time>
      </trkpt>
      <trkpt lat="44.31341" lon="1.40459">
        <ele>200.42300952228</ele>
        <time>2017-09-07T14:00:59Z</time>
      </trkpt>
      <trkpt lat="44.31334" lon="1.40454">
        <ele>200.32003715406</ele>
        <time>2017-09-07T14:01:07Z</time>
      </trkpt>
      <trkpt lat="44.31328" lon="1.40447">
        <ele>200.82719638578</ele>
        <time>2017-09-07T14:01:14Z</time>
      </trkpt>
      <trkpt lat="44.31321" lon="1.40441">
        <ele>201.14027399203</ele>
        <time>2017-09-07T14:01:19Z</time>
      </trkpt>
      <trkpt lat="44.31314" lon="1.40434">
        <ele>201.96687378876</ele>
        <time>2017-09-07T14:01:26Z</time>
      </trkpt>
      <trkpt lat="44.31308" lon="1.40427">
        <ele>202.61932934633</ele>
        <time>2017-09-07T14:01:33Z</time>
      </trkpt>
      <trkpt lat="44.31303" lon="1.40417">
        <ele>203.66511693275</ele>
        <time>2017-09-07T14:01:42Z</time>
      </trkpt>
      <trkpt lat="44.313" lon="1.40405">
        <ele>204.15293912089</ele>
        <time>2017-09-07T14:01:51Z</time>
      </trkpt>
      <trkpt lat="44.31305" lon="1.40396">
        <ele>205.01681813935</ele>
        <time>2017-09-07T14:02:01Z</time>
      </trkpt>
      <trkpt lat="44.31313" lon="1.4039">
        <ele>206.21694025442</ele>
        <time>2017-09-07T14:02:09Z</time>
      </trkpt>
      <trkpt lat="44.3132" lon="1.40384">
        <ele>207.28382873007</ele>
        <time>2017-09-07T14:02:17Z</time>
      </trkpt>
      <trkpt lat="44.31327" lon="1.4038">
        <ele>208.34641546599</ele>
        <time>2017-09-07T14:02:25Z</time>
      </trkpt>
      <trkpt lat="44.31335" lon="1.40376">
        <ele>210.91308950636</ele>
        <time>2017-09-07T14:02:37Z</time>
      </trkpt>
      <trkpt lat="44.31343" lon="1.40372">
        <ele>211.76658399459</ele>
        <time>2017-09-07T14:02:44Z</time>
      </trkpt>
      <trkpt lat="44.31352" lon="1.40371">
        <ele>212.05150533254</ele>
        <time>2017-09-07T14:02:54Z</time>
      </trkpt>
      <trkpt lat="44.3136" lon="1.40372">
        <ele>212.14348272894</ele>
        <time>2017-09-07T14:03:02Z</time>
      </trkpt>
      <trkpt lat="44.31369" lon="1.4037">
        <ele>213.38674632871</ele>
        <time>2017-09-07T14:03:13Z</time>
      </trkpt>
      <trkpt lat="44.31377" lon="1.40367">
        <ele>214.9563064174</ele>
        <time>2017-09-07T14:03:23Z</time>
      </trkpt>
      <trkpt lat="44.31385" lon="1.40362">
        <ele>216.67093334884</ele>
        <time>2017-09-07T14:03:30Z</time>
      </trkpt>
      <trkpt lat="44.31392" lon="1.40355">
        <ele>218.6847097488</ele>
        <time>2017-09-07T14:03:40Z</time>
      </trkpt>
      <trkpt lat="44.31399" lon="1.40347">
        <ele>219.79377028956</ele>
        <time>2017-09-07T14:03:48Z</time>
      </trkpt>
      <trkpt lat="44.31405" lon="1.40339">
        <ele>220.71962408052</ele>
        <time>2017-09-07T14:03:59Z</time>
      </trkpt>
      <trkpt lat="44.31412" lon="1.40332">
        <ele>221.47026668472</ele>
        <time>2017-09-07T14:04:08Z</time>
      </trkpt>
      <trkpt lat="44.31419" lon="1.40325">
        <ele>222.04562477205</ele>
        <time>2017-09-07T14:04:15Z</time>
      </trkpt>
      <trkpt lat="44.31425" lon="1.40318">
        <ele>222.33758844609</ele>
        <time>2017-09-07T14:04:21Z</time>
      </trkpt>
      <trkpt lat="44.31431" lon="1.4031">
        <ele>222.79178624437</ele>
        <time>2017-09-07T14:04:30Z</time>
      </trkpt>
      <trkpt lat="44.31436" lon="1.403">
        <ele>222.27056431454</ele>
        <time>2017-09-07T14:04:40Z</time>
      </trkpt>
      <trkpt lat="44.31442" lon="1.40293">
        <ele>222.15663259076</ele>
        <time>2017-09-07T14:04:49Z</time>
      </trkpt>
      <trkpt lat="44.3145" lon="1.40289">
        <ele>223.50747084873</ele>
        <time>2017-09-07T14:05:24Z</time>
      </trkpt>
      <trkpt lat="44.31442" lon="1.40291">
        <ele>223.6971722647</ele>
        <time>2017-09-07T14:06:27Z</time>
      </trkpt>
      <trkpt lat="44.31434" lon="1.40296">
        <ele>224.46690047168</ele>
        <time>2017-09-07T14:09:16Z</time>
      </trkpt>
      <trkpt lat="44.31439" lon="1.40306">
        <ele>225.856415465</ele>
        <time>2017-09-07T14:09:44Z</time>
      </trkpt>
      <trkpt lat="44.31444" lon="1.40296">
        <ele>225.77851883609</ele>
        <time>2017-09-07T14:10:13Z</time>
      </trkpt>
      <trkpt lat="44.31448" lon="1.40285">
        <ele>226.42069107061</ele>
        <time>2017-09-07T14:20:45Z</time>
      </trkpt>
      <trkpt lat="44.31452" lon="1.40274">
        <ele>223.12972479968</ele>
        <time>2017-09-07T14:22:22Z</time>
      </trkpt>
      <trkpt lat="44.31458" lon="1.40265">
        <ele>222.5525220043</ele>
        <time>2017-09-07T14:22:31Z</time>
      </trkpt>
      <trkpt lat="44.31463" lon="1.40256">
        <ele>222.41609316996</ele>
        <time>2017-09-07T14:22:39Z</time>
      </trkpt>
      <trkpt lat="44.31468" lon="1.40246">
        <ele>222.36995183172</ele>
        <time>2017-09-07T14:22:47Z</time>
      </trkpt>
      <trkpt lat="44.31472" lon="1.40237">
        <ele>222.57546865643</ele>
        <time>2017-09-07T14:22:55Z</time>
      </trkpt>
      <trkpt lat="44.31479" lon="1.40229">
        <ele>222.71783521274</ele>
        <time>2017-09-07T14:23:02Z</time>
      </trkpt>
      <trkpt lat="44.31484" lon="1.4022">
        <ele>223.07188956902</ele>
        <time>2017-09-07T14:23:10Z</time>
      </trkpt>
      <trkpt lat="44.31489" lon="1.40211">
        <ele>223.26814391947</ele>
        <time>2017-09-07T14:23:18Z</time>
      </trkpt>
      <trkpt lat="44.31494" lon="1.40202">
        <ele>223.25795324142</ele>
        <time>2017-09-07T14:23:27Z</time>
      </trkpt>
      <trkpt lat="44.31499" lon="1.40192">
        <ele>223.13940816402</ele>
        <time>2017-09-07T14:23:33Z</time>
      </trkpt>
      <trkpt lat="44.31502" lon="1.40182">
        <ele>222.70842482954</ele>
        <time>2017-09-07T14:23:42Z</time>
      </trkpt>
      <trkpt lat="44.31507" lon="1.40172">
        <ele>222.49780372616</ele>
        <time>2017-09-07T14:23:50Z</time>
      </trkpt>
      <trkpt lat="44.31513" lon="1.40163">
        <ele>222.64448400871</ele>
        <time>2017-09-07T14:23:58Z</time>
      </trkpt>
      <trkpt lat="44.31516" lon="1.40153">
        <ele>222.69990940805</ele>
        <time>2017-09-07T14:24:04Z</time>
      </trkpt>
      <trkpt lat="44.31519" lon="1.40143">
        <ele>222.65302936931</ele>
        <time>2017-09-07T14:24:11Z</time>
      </trkpt>
      <trkpt lat="44.31522" lon="1.40132">
        <ele>222.91433043725</ele>
        <time>2017-09-07T14:24:19Z</time>
      </trkpt>
      <trkpt lat="44.31524" lon="1.4012">
        <ele>222.54805175373</ele>
        <time>2017-09-07T14:24:28Z</time>
      </trkpt>
      <trkpt lat="44.31527" lon="1.40109">
        <ele>222.32016476716</ele>
        <time>2017-09-07T14:24:35Z</time>
      </trkpt>
      <trkpt lat="44.31529" lon="1.40098">
        <ele>222.0966594572</ele>
        <time>2017-09-07T14:24:44Z</time>
      </trkpt>
      <trkpt lat="44.3153" lon="1.40087">
        <ele>221.69550664844</ele>
        <time>2017-09-07T14:24:52Z</time>
      </trkpt>
      <trkpt lat="44.3153" lon="1.40075">
        <ele>221.37824687473</ele>
        <time>2017-09-07T14:24:59Z</time>
      </trkpt>
      <trkpt lat="44.31531" lon="1.40065">
        <ele>221.39813559111</ele>
        <time>2017-09-07T14:25:06Z</time>
      </trkpt>
      <trkpt lat="44.31533" lon="1.40053">
        <ele>221.34084763076</ele>
        <time>2017-09-07T14:25:11Z</time>
      </trkpt>
      <trkpt lat="44.31535" lon="1.40042">
        <ele>221.0626414256</ele>
        <time>2017-09-07T14:25:20Z</time>
      </trkpt>
      <trkpt lat="44.31536" lon="1.40029">
        <ele>220.77331048933</ele>
        <time>2017-09-07T14:25:28Z</time>
      </trkpt>
      <trkpt lat="44.31539" lon="1.40018">
        <ele>220.61881858938</ele>
        <time>2017-09-07T14:25:37Z</time>
      </trkpt>
      <trkpt lat="44.31542" lon="1.40008">
        <ele>220.11031971102</ele>
        <time>2017-09-07T14:25:43Z</time>
      </trkpt>
      <trkpt lat="44.31546" lon="1.39998">
        <ele>219.81639760233</ele>
        <time>2017-09-07T14:25:50Z</time>
      </trkpt>
      <trkpt lat="44.3155" lon="1.39987">
        <ele>219.88884463131</ele>
        <time>2017-09-07T14:25:59Z</time>
      </trkpt>
      <trkpt lat="44.31552" lon="1.39975">
        <ele>219.6826902651</ele>
        <time>2017-09-07T14:26:09Z</time>
      </trkpt>
      <trkpt lat="44.31556" lon="1.39964">
        <ele>219.32358016543</ele>
        <time>2017-09-07T14:26:17Z</time>
      </trkpt>
      <trkpt lat="44.3156" lon="1.39953">
        <ele>219.66283131953</ele>
        <time>2017-09-07T14:26:25Z</time>
      </trkpt>
      <trkpt lat="44.31565" lon="1.39943">
        <ele>219.78439464681</ele>
        <time>2017-09-07T14:26:32Z</time>
      </trkpt>
      <trkpt lat="44.31566" lon="1.3993">
        <ele>219.28321823109</ele>
        <time>2017-09-07T14:26:41Z</time>
      </trkpt>
      <trkpt lat="44.3157" lon="1.39919">
        <ele>219.23367772558</ele>
        <time>2017-09-07T14:26:50Z</time>
      </trkpt>
      <trkpt lat="44.31573" lon="1.39907">
        <ele>218.91686205198</ele>
        <time>2017-09-07T14:26:58Z</time>
      </trkpt>
      <trkpt lat="44.31576" lon="1.39898">
        <ele>218.27986582844</ele>
        <time>2017-09-07T14:27:05Z</time>
      </trkpt>
      <trkpt lat="44.31582" lon="1.39891">
        <ele>217.81599198881</ele>
        <time>2017-09-07T14:27:11Z</time>
      </trkpt>
      <trkpt lat="44.31587" lon="1.39881">
        <ele>217.6574258581</ele>
        <time>2017-09-07T14:27:18Z</time>
      </trkpt>
      <trkpt lat="44.31593" lon="1.39872">
        <ele>217.58937993181</ele>
        <time>2017-09-07T14:27:25Z</time>
      </trkpt>
      <trkpt lat="44.31597" lon="1.39864">
        <ele>217.62571885459</ele>
        <time>2017-09-07T14:27:34Z</time>
      </trkpt>
      <trkpt lat="44.31603" lon="1.39855">
        <ele>216.70083360122</ele>
        <time>2017-09-07T14:27:51Z</time>
      </trkpt>
      <trkpt lat="44.3161" lon="1.3985">
        <ele>216.82356201862</ele>
        <time>2017-09-07T14:27:56Z</time>
      </trkpt>
      <trkpt lat="44.31618" lon="1.39845">
        <ele>216.86857406046</ele>
        <time>2017-09-07T14:28:02Z</time>
      </trkpt>
      <trkpt lat="44.31626" lon="1.3984">
        <ele>217.38776395846</ele>
        <time>2017-09-07T14:28:09Z</time>
      </trkpt>
      <trkpt lat="44.31634" lon="1.39834">
        <ele>217.80786590945</ele>
        <time>2017-09-07T14:28:17Z</time>
      </trkpt>
      <trkpt lat="44.31642" lon="1.39832">
        <ele>217.97263080126</ele>
        <time>2017-09-07T14:28:26Z</time>
      </trkpt>
      <trkpt lat="44.3165" lon="1.39828">
        <ele>218.12463738403</ele>
        <time>2017-09-07T14:28:33Z</time>
      </trkpt>
      <trkpt lat="44.31658" lon="1.39826">
        <ele>218.15115177494</ele>
        <time>2017-09-07T14:28:39Z</time>
      </trkpt>
      <trkpt lat="44.31666" lon="1.39824">
        <ele>218.69399251094</ele>
        <time>2017-09-07T14:28:48Z</time>
      </trkpt>
      <trkpt lat="44.31674" lon="1.39818">
        <ele>219.22238320716</ele>
        <time>2017-09-07T14:28:58Z</time>
      </trkpt>
      <trkpt lat="44.3168" lon="1.3981">
        <ele>219.04857767628</ele>
        <time>2017-09-07T14:29:07Z</time>
      </trkpt>
      <trkpt lat="44.31687" lon="1.39803">
        <ele>218.45533839026</ele>
        <time>2017-09-07T14:29:13Z</time>
      </trkpt>
      <trkpt lat="44.31693" lon="1.39795">
        <ele>218.3412153483</ele>
        <time>2017-09-07T14:29:19Z</time>
      </trkpt>
      <trkpt lat="44.317" lon="1.39787">
        <ele>218.55362893547</ele>
        <time>2017-09-07T14:29:25Z</time>
      </trkpt>
      <trkpt lat="44.31707" lon="1.39779">
        <ele>219.09098435528</ele>
        <time>2017-09-07T14:29:33Z</time>
      </trkpt>
      <trkpt lat="44.31712" lon="1.3977">
        <ele>219.49512447033</ele>
        <time>2017-09-07T14:29:41Z</time>
      </trkpt>
      <trkpt lat="44.31718" lon="1.39762">
        <ele>219.26126071895</ele>
        <time>2017-09-07T14:29:48Z</time>
      </trkpt>
      <trkpt lat="44.31723" lon="1.39753">
        <ele>218.90714462569</ele>
        <time>2017-09-07T14:29:54Z</time>
      </trkpt>
      <trkpt lat="44.3173" lon="1.39748">
        <ele>218.78850180081</ele>
        <time>2017-09-07T14:30:00Z</time>
      </trkpt>
      <trkpt lat="44.31736" lon="1.3974">
        <ele>219.02898772322</ele>
        <time>2017-09-07T14:30:07Z</time>
      </trkpt>
      <trkpt lat="44.31741" lon="1.39732">
        <ele>219.20596748167</ele>
        <time>2017-09-07T14:30:14Z</time>
      </trkpt>
      <trkpt lat="44.31745" lon="1.39722">
        <ele>219.43352837662</ele>
        <time>2017-09-07T14:30:23Z</time>
      </trkpt>
      <trkpt lat="44.3175" lon="1.39712">
        <ele>219.46982944419</ele>
        <time>2017-09-07T14:30:30Z</time>
      </trkpt>
      <trkpt lat="44.31755" lon="1.39703">
        <ele>219.58852364087</ele>
        <time>2017-09-07T14:30:36Z</time>
      </trkpt>
      <trkpt lat="44.3176" lon="1.39694">
        <ele>219.63179119783</ele>
        <time>2017-09-07T14:30:42Z</time>
      </trkpt>
      <trkpt lat="44.31763" lon="1.39684">
        <ele>219.9422077968</ele>
        <time>2017-09-07T14:30:50Z</time>
      </trkpt>
      <trkpt lat="44.31767" lon="1.39673">
        <ele>220.23319266613</ele>
        <time>2017-09-07T14:30:57Z</time>
      </trkpt>
      <trkpt lat="44.3177" lon="1.39663">
        <ele>220.12293205905</ele>
        <time>2017-09-07T14:31:04Z</time>
      </trkpt>
      <trkpt lat="44.31774" lon="1.39653">
        <ele>220.30383337257</ele>
        <time>2017-09-07T14:31:11Z</time>
      </trkpt>
      <trkpt lat="44.31777" lon="1.39642">
        <ele>220.82425149619</ele>
        <time>2017-09-07T14:31:18Z</time>
      </trkpt>
      <trkpt lat="44.3178" lon="1.39631">
        <ele>221.17444533617</ele>
        <time>2017-09-07T14:31:27Z</time>
      </trkpt>
      <trkpt lat="44.31784" lon="1.3962">
        <ele>220.88688889374</ele>
        <time>2017-09-07T14:31:34Z</time>
      </trkpt>
      <trkpt lat="44.31788" lon="1.39611">
        <ele>221.22389743564</ele>
        <time>2017-09-07T14:31:40Z</time>
      </trkpt>
      <trkpt lat="44.31794" lon="1.39602">
        <ele>221.23044213481</ele>
        <time>2017-09-07T14:31:48Z</time>
      </trkpt>
      <trkpt lat="44.31801" lon="1.39595">
        <ele>221.92099943074</ele>
        <time>2017-09-07T14:31:57Z</time>
      </trkpt>
      <trkpt lat="44.31808" lon="1.39601">
        <ele>221.84342276031</ele>
        <time>2017-09-07T14:33:04Z</time>
      </trkpt>
      <trkpt lat="44.31814" lon="1.39592">
        <ele>222.08852586188</ele>
        <time>2017-09-07T14:33:30Z</time>
      </trkpt>
      <trkpt lat="44.31822" lon="1.39589">
        <ele>223.01627412535</ele>
        <time>2017-09-07T14:33:41Z</time>
      </trkpt>
      <trkpt lat="44.3183" lon="1.39587">
        <ele>223.13021131938</ele>
        <time>2017-09-07T14:33:49Z</time>
      </trkpt>
      <trkpt lat="44.31837" lon="1.39584">
        <ele>223.77983569649</ele>
        <time>2017-09-07T14:33:56Z</time>
      </trkpt>
      <trkpt lat="44.31845" lon="1.39582">
        <ele>224.48086276738</ele>
        <time>2017-09-07T14:34:01Z</time>
      </trkpt>
      <trkpt lat="44.31854" lon="1.39577">
        <ele>225.02604594528</ele>
        <time>2017-09-07T14:34:07Z</time>
      </trkpt>
      <trkpt lat="44.3186" lon="1.39571">
        <ele>225.55875368165</ele>
        <time>2017-09-07T14:34:14Z</time>
      </trkpt>
      <trkpt lat="44.31865" lon="1.39562">
        <ele>225.56879043034</ele>
        <time>2017-09-07T14:34:23Z</time>
      </trkpt>
      <trkpt lat="44.31872" lon="1.39557">
        <ele>225.38759658403</ele>
        <time>2017-09-07T14:34:34Z</time>
      </trkpt>
      <trkpt lat="44.3188" lon="1.39552">
        <ele>225.21273102189</ele>
        <time>2017-09-07T14:34:42Z</time>
      </trkpt>
      <trkpt lat="44.31889" lon="1.39545">
        <ele>224.84924711867</ele>
        <time>2017-09-07T14:34:47Z</time>
      </trkpt>
      <trkpt lat="44.31897" lon="1.39541">
        <ele>224.86277515663</ele>
        <time>2017-09-07T14:34:55Z</time>
      </trkpt>
      <trkpt lat="44.31906" lon="1.39538">
        <ele>225.04672969804</ele>
        <time>2017-09-07T14:35:01Z</time>
      </trkpt>
      <trkpt lat="44.31914" lon="1.39538">
        <ele>225.9376763236</ele>
        <time>2017-09-07T14:35:10Z</time>
      </trkpt>
      <trkpt lat="44.31921" lon="1.39536">
        <ele>226.36227611358</ele>
        <time>2017-09-07T14:35:17Z</time>
      </trkpt>
      <trkpt lat="44.3193" lon="1.39532">
        <ele>227.08862113717</ele>
        <time>2017-09-07T14:35:26Z</time>
      </trkpt>
      <trkpt lat="44.31938" lon="1.39532">
        <ele>227.17836319364</ele>
        <time>2017-09-07T14:35:33Z</time>
      </trkpt>
      <trkpt lat="44.31946" lon="1.39529">
        <ele>227.30333436061</ele>
        <time>2017-09-07T14:35:42Z</time>
      </trkpt>
      <trkpt lat="44.31954" lon="1.39526">
        <ele>227.82501614422</ele>
        <time>2017-09-07T14:35:51Z</time>
      </trkpt>
      <trkpt lat="44.31962" lon="1.39523">
        <ele>227.90153898152</ele>
        <time>2017-09-07T14:35:57Z</time>
      </trkpt>
      <trkpt lat="44.31969" lon="1.39518">
        <ele>228.35447027613</ele>
        <time>2017-09-07T14:36:03Z</time>
      </trkpt>
      <trkpt lat="44.31977" lon="1.39516">
        <ele>228.67959160097</ele>
        <time>2017-09-07T14:36:09Z</time>
      </trkpt>
      <trkpt lat="44.31986" lon="1.39516">
        <ele>229.45560964196</ele>
        <time>2017-09-07T14:36:17Z</time>
      </trkpt>
      <trkpt lat="44.31994" lon="1.39518">
        <ele>229.94762206706</ele>
        <time>2017-09-07T14:36:24Z</time>
      </trkpt>
      <trkpt lat="44.32003" lon="1.39517">
        <ele>230.12083706357</ele>
        <time>2017-09-07T14:36:31Z</time>
      </trkpt>
      <trkpt lat="44.32011" lon="1.39517">
        <ele>230.30258800038</ele>
        <time>2017-09-07T14:36:39Z</time>
      </trkpt>
      <trkpt lat="44.32019" lon="1.39521">
        <ele>230.13611822398</ele>
        <time>2017-09-07T14:36:47Z</time>
      </trkpt>
      <trkpt lat="44.32027" lon="1.39525">
        <ele>230.49810081254</ele>
        <time>2017-09-07T14:36:57Z</time>
      </trkpt>
      <trkpt lat="44.32034" lon="1.39518">
        <ele>230.80566409941</ele>
        <time>2017-09-07T14:37:09Z</time>
      </trkpt>
      <trkpt lat="44.32036" lon="1.39507">
        <ele>230.64934491881</ele>
        <time>2017-09-07T14:37:16Z</time>
      </trkpt>
      <trkpt lat="44.32038" lon="1.39495">
        <ele>231.10380444951</ele>
        <time>2017-09-07T14:37:25Z</time>
      </trkpt>
      <trkpt lat="44.32035" lon="1.39483">
        <ele>231.41020883869</ele>
        <time>2017-09-07T14:37:33Z</time>
      </trkpt>
      <trkpt lat="44.32032" lon="1.39473">
        <ele>231.33113743409</ele>
        <time>2017-09-07T14:37:39Z</time>
      </trkpt>
      <trkpt lat="44.32033" lon="1.39461">
        <ele>232.07174479474</ele>
        <time>2017-09-07T14:37:52Z</time>
      </trkpt>
      <trkpt lat="44.32041" lon="1.39458">
        <ele>232.21914817576</ele>
        <time>2017-09-07T14:38:01Z</time>
      </trkpt>
      <trkpt lat="44.32049" lon="1.39454">
        <ele>232.12857281514</ele>
        <time>2017-09-07T14:38:10Z</time>
      </trkpt>
      <trkpt lat="44.32057" lon="1.39449">
        <ele>232.12068722235</ele>
        <time>2017-09-07T14:38:18Z</time>
      </trkpt>
      <trkpt lat="44.32065" lon="1.39446">
        <ele>231.87685685162</ele>
        <time>2017-09-07T14:38:25Z</time>
      </trkpt>
      <trkpt lat="44.32073" lon="1.39442">
        <ele>231.75772523797</ele>
        <time>2017-09-07T14:38:36Z</time>
      </trkpt>
      <trkpt lat="44.32081" lon="1.39436">
        <ele>231.95456761623</ele>
        <time>2017-09-07T14:38:49Z</time>
      </trkpt>
      <trkpt lat="44.32089" lon="1.39434">
        <ele>231.6595342662</ele>
        <time>2017-09-07T14:38:58Z</time>
      </trkpt>
      <trkpt lat="44.32097" lon="1.39432">
        <ele>232.11230567461</ele>
        <time>2017-09-07T14:39:10Z</time>
      </trkpt>
      <trkpt lat="44.32106" lon="1.3943">
        <ele>232.75524036166</ele>
        <time>2017-09-07T14:39:18Z</time>
      </trkpt>
      <trkpt lat="44.32114" lon="1.39431">
        <ele>233.30712219459</ele>
        <time>2017-09-07T14:39:26Z</time>
      </trkpt>
      <trkpt lat="44.32122" lon="1.39436">
        <ele>234.04310610837</ele>
        <time>2017-09-07T14:39:36Z</time>
      </trkpt>
      <trkpt lat="44.3213" lon="1.3944">
        <ele>235.0728217158</ele>
        <time>2017-09-07T14:39:47Z</time>
      </trkpt>
      <trkpt lat="44.32133" lon="1.39452">
        <ele>235.21445221183</ele>
        <time>2017-09-07T14:40:03Z</time>
      </trkpt>
      <trkpt lat="44.32135" lon="1.39463">
        <ele>236.59528813242</ele>
        <time>2017-09-07T14:40:18Z</time>
      </trkpt>
      <trkpt lat="44.32137" lon="1.39475">
        <ele>237.70075075247</ele>
        <time>2017-09-07T14:40:28Z</time>
      </trkpt>
      <trkpt lat="44.32139" lon="1.39486">
        <ele>238.29551084994</ele>
        <time>2017-09-07T14:40:38Z</time>
      </trkpt>
      <trkpt lat="44.32144" lon="1.39497">
        <ele>238.78529018711</ele>
        <time>2017-09-07T14:40:48Z</time>
      </trkpt>
      <trkpt lat="44.32146" lon="1.39508">
        <ele>239.72093391407</ele>
        <time>2017-09-07T14:40:57Z</time>
      </trkpt>
      <trkpt lat="44.32146" lon="1.39521">
        <ele>241.0185501772</ele>
        <time>2017-09-07T14:41:10Z</time>
      </trkpt>
      <trkpt lat="44.32147" lon="1.3953">
        <ele>242.68549616014</ele>
        <time>2017-09-07T14:41:18Z</time>
      </trkpt>
      <trkpt lat="44.32151" lon="1.3954">
        <ele>244.84389514286</ele>
        <time>2017-09-07T14:41:27Z</time>
      </trkpt>
      <trkpt lat="44.32155" lon="1.39551">
        <ele>246.55701364569</ele>
        <time>2017-09-07T14:41:37Z</time>
      </trkpt>
      <trkpt lat="44.32157" lon="1.39563">
        <ele>248.85649955959</ele>
        <time>2017-09-07T14:41:48Z</time>
      </trkpt>
      <trkpt lat="44.32156" lon="1.39575">
        <ele>251.54734755471</ele>
        <time>2017-09-07T14:42:01Z</time>
      </trkpt>
      <trkpt lat="44.32158" lon="1.39587">
        <ele>253.71992555305</ele>
        <time>2017-09-07T14:42:14Z</time>
      </trkpt>
      <trkpt lat="44.32159" lon="1.39599">
        <ele>255.20471863909</ele>
        <time>2017-09-07T14:42:25Z</time>
      </trkpt>
      <trkpt lat="44.32158" lon="1.3961">
        <ele>256.27803324934</ele>
        <time>2017-09-07T14:42:35Z</time>
      </trkpt>
      <trkpt lat="44.32155" lon="1.39621">
        <ele>257.05192577258</ele>
        <time>2017-09-07T14:42:43Z</time>
      </trkpt>
      <trkpt lat="44.32153" lon="1.39633">
        <ele>258.38024925748</ele>
        <time>2017-09-07T14:42:53Z</time>
      </trkpt>
      <trkpt lat="44.32151" lon="1.39645">
        <ele>259.81233971409</ele>
        <time>2017-09-07T14:43:02Z</time>
      </trkpt>
      <trkpt lat="44.32149" lon="1.39657">
        <ele>261.84804562969</ele>
        <time>2017-09-07T14:43:13Z</time>
      </trkpt>
      <trkpt lat="44.32154" lon="1.39667">
        <ele>263.42776312801</ele>
        <time>2017-09-07T14:43:23Z</time>
      </trkpt>
      <trkpt lat="44.32159" lon="1.39677">
        <ele>264.57641242124</ele>
        <time>2017-09-07T14:43:31Z</time>
      </trkpt>
      <trkpt lat="44.32164" lon="1.39687">
        <ele>265.85143954388</ele>
        <time>2017-09-07T14:43:40Z</time>
      </trkpt>
      <trkpt lat="44.3217" lon="1.39695">
        <ele>266.40510712257</ele>
        <time>2017-09-07T14:43:49Z</time>
      </trkpt>
      <trkpt lat="44.32176" lon="1.39704">
        <ele>267.19641672646</ele>
        <time>2017-09-07T14:43:57Z</time>
      </trkpt>
      <trkpt lat="44.3218" lon="1.39714">
        <ele>268.53978280594</ele>
        <time>2017-09-07T14:44:05Z</time>
      </trkpt>
      <trkpt lat="44.32186" lon="1.39722">
        <ele>269.06405974213</ele>
        <time>2017-09-07T14:44:11Z</time>
      </trkpt>
      <trkpt lat="44.32193" lon="1.3973">
        <ele>270.12112825345</ele>
        <time>2017-09-07T14:44:19Z</time>
      </trkpt>
      <trkpt lat="44.32201" lon="1.39734">
        <ele>270.50699794341</ele>
        <time>2017-09-07T14:44:31Z</time>
      </trkpt>
      <trkpt lat="44.32208" lon="1.39742">
        <ele>270.21158335579</ele>
        <time>2017-09-07T14:44:57Z</time>
      </trkpt>
      <trkpt lat="44.32208" lon="1.39754">
        <ele>273.24715472056</ele>
        <time>2017-09-07T14:47:48Z</time>
      </trkpt>
      <trkpt lat="44.32212" lon="1.39765">
        <ele>272.78040264138</ele>
        <time>2017-09-07T14:47:58Z</time>
      </trkpt>
      <trkpt lat="44.32219" lon="1.39773">
        <ele>272.74888945003</ele>
        <time>2017-09-07T14:48:08Z</time>
      </trkpt>
      <trkpt lat="44.32223" lon="1.39784">
        <ele>272.88045626067</ele>
        <time>2017-09-07T14:48:17Z</time>
      </trkpt>
      <trkpt lat="44.32226" lon="1.39794">
        <ele>273.12424686333</ele>
        <time>2017-09-07T14:48:25Z</time>
      </trkpt>
      <trkpt lat="44.3223" lon="1.39803">
        <ele>273.26702218764</ele>
        <time>2017-09-07T14:48:34Z</time>
      </trkpt>
      <trkpt lat="44.32235" lon="1.39813">
        <ele>273.73733770808</ele>
        <time>2017-09-07T14:48:44Z</time>
      </trkpt>
      <trkpt lat="44.32238" lon="1.39824">
        <ele>273.65900126</ele>
        <time>2017-09-07T14:48:51Z</time>
      </trkpt>
      <trkpt lat="44.32242" lon="1.39834">
        <ele>274.33698709055</ele>
        <time>2017-09-07T14:48:58Z</time>
      </trkpt>
      <trkpt lat="44.32247" lon="1.39844">
        <ele>274.55483552024</ele>
        <time>2017-09-07T14:49:05Z</time>
      </trkpt>
      <trkpt lat="44.32251" lon="1.39854">
        <ele>274.54231998563</ele>
        <time>2017-09-07T14:49:13Z</time>
      </trkpt>
      <trkpt lat="44.32258" lon="1.39862">
        <ele>274.21567546954</ele>
        <time>2017-09-07T14:49:21Z</time>
      </trkpt>
      <trkpt lat="44.32264" lon="1.3987">
        <ele>274.45829720627</ele>
        <time>2017-09-07T14:49:30Z</time>
      </trkpt>
      <trkpt lat="44.3227" lon="1.3988">
        <ele>274.61073313205</ele>
        <time>2017-09-07T14:49:38Z</time>
      </trkpt>
      <trkpt lat="44.32275" lon="1.39888">
        <ele>274.64107406077</ele>
        <time>2017-09-07T14:49:45Z</time>
      </trkpt>
      <trkpt lat="44.32282" lon="1.39894">
        <ele>274.00255344476</ele>
        <time>2017-09-07T14:49:52Z</time>
      </trkpt>
      <trkpt lat="44.3229" lon="1.39894">
        <ele>273.74478436323</ele>
        <time>2017-09-07T14:49:59Z</time>
      </trkpt>
      <trkpt lat="44.32299" lon="1.39892">
        <ele>273.76424109842</ele>
        <time>2017-09-07T14:50:09Z</time>
      </trkpt>
      <trkpt lat="44.32308" lon="1.39892">
        <ele>273.66231963915</ele>
        <time>2017-09-07T14:50:17Z</time>
      </trkpt>
      <trkpt lat="44.32316" lon="1.39889">
        <ele>273.417241427</ele>
        <time>2017-09-07T14:50:26Z</time>
      </trkpt>
      <trkpt lat="44.32324" lon="1.39886">
        <ele>273.48656389599</ele>
        <time>2017-09-07T14:50:33Z</time>
      </trkpt>
      <trkpt lat="44.32332" lon="1.39884">
        <ele>273.82195502193</ele>
        <time>2017-09-07T14:50:39Z</time>
      </trkpt>
      <trkpt lat="44.3234" lon="1.39879">
        <ele>273.4561713929</ele>
        <time>2017-09-07T14:50:48Z</time>
      </trkpt>
      <trkpt lat="44.32347" lon="1.39873">
        <ele>273.62430263856</ele>
        <time>2017-09-07T14:50:54Z</time>
      </trkpt>
      <trkpt lat="44.32354" lon="1.39866">
        <ele>273.72317470701</ele>
        <time>2017-09-07T14:51:02Z</time>
      </trkpt>
      <trkpt lat="44.32361" lon="1.3986">
        <ele>273.44476295496</ele>
        <time>2017-09-07T14:51:09Z</time>
      </trkpt>
      <trkpt lat="44.32366" lon="1.39851">
        <ele>273.7458507668</ele>
        <time>2017-09-07T14:51:16Z</time>
      </trkpt>
      <trkpt lat="44.32373" lon="1.39842">
        <ele>273.81071779596</ele>
        <time>2017-09-07T14:51:25Z</time>
      </trkpt>
      <trkpt lat="44.32379" lon="1.39835">
        <ele>273.51045491889</ele>
        <time>2017-09-07T14:51:32Z</time>
      </trkpt>
      <trkpt lat="44.32386" lon="1.39829">
        <ele>273.75926536944</ele>
        <time>2017-09-07T14:51:39Z</time>
      </trkpt>
      <trkpt lat="44.32393" lon="1.39822">
        <ele>273.71758238272</ele>
        <time>2017-09-07T14:51:46Z</time>
      </trkpt>
      <trkpt lat="44.324" lon="1.39815">
        <ele>273.81207558733</ele>
        <time>2017-09-07T14:51:51Z</time>
      </trkpt>
      <trkpt lat="44.32407" lon="1.39807">
        <ele>274.19387006291</ele>
        <time>2017-09-07T14:51:57Z</time>
      </trkpt>
      <trkpt lat="44.32412" lon="1.39798">
        <ele>274.96585669646</ele>
        <time>2017-09-07T14:52:05Z</time>
      </trkpt>
      <trkpt lat="44.32419" lon="1.39792">
        <ele>274.88621052998</ele>
        <time>2017-09-07T14:52:12Z</time>
      </trkpt>
      <trkpt lat="44.32427" lon="1.39789">
        <ele>274.55919122389</ele>
        <time>2017-09-07T14:52:19Z</time>
      </trkpt>
      <trkpt lat="44.32434" lon="1.39785">
        <ele>274.81831724687</ele>
        <time>2017-09-07T14:52:25Z</time>
      </trkpt>
      <trkpt lat="44.32441" lon="1.39779">
        <ele>274.79754368905</ele>
        <time>2017-09-07T14:52:31Z</time>
      </trkpt>
      <trkpt lat="44.32448" lon="1.39773">
        <ele>274.81717973721</ele>
        <time>2017-09-07T14:52:38Z</time>
      </trkpt>
      <trkpt lat="44.32456" lon="1.39768">
        <ele>274.82599677284</ele>
        <time>2017-09-07T14:52:44Z</time>
      </trkpt>
      <trkpt lat="44.32463" lon="1.39765">
        <ele>274.67580266504</ele>
        <time>2017-09-07T14:52:51Z</time>
      </trkpt>
      <trkpt lat="44.32472" lon="1.39761">
        <ele>274.78814092404</ele>
        <time>2017-09-07T14:53:00Z</time>
      </trkpt>
      <trkpt lat="44.3248" lon="1.39755">
        <ele>275.26805987087</ele>
        <time>2017-09-07T14:53:07Z</time>
      </trkpt>
      <trkpt lat="44.32487" lon="1.39751">
        <ele>275.55261271719</ele>
        <time>2017-09-07T14:53:13Z</time>
      </trkpt>
      <trkpt lat="44.32494" lon="1.39746">
        <ele>275.61970364254</ele>
        <time>2017-09-07T14:53:20Z</time>
      </trkpt>
      <trkpt lat="44.32502" lon="1.3974">
        <ele>275.64286979701</ele>
        <time>2017-09-07T14:53:26Z</time>
      </trkpt>
      <trkpt lat="44.3251" lon="1.39736">
        <ele>275.69909503257</ele>
        <time>2017-09-07T14:53:31Z</time>
      </trkpt>
      <trkpt lat="44.32519" lon="1.39734">
        <ele>276.01747607899</ele>
        <time>2017-09-07T14:53:38Z</time>
      </trkpt>
      <trkpt lat="44.32527" lon="1.3973">
        <ele>276.40564377122</ele>
        <time>2017-09-07T14:53:45Z</time>
      </trkpt>
      <trkpt lat="44.32535" lon="1.39727">
        <ele>276.64063103726</ele>
        <time>2017-09-07T14:53:55Z</time>
      </trkpt>
      <trkpt lat="44.32543" lon="1.39723">
        <ele>276.78506996392</ele>
        <time>2017-09-07T14:54:01Z</time>
      </trkpt>
      <trkpt lat="44.3255" lon="1.39719">
        <ele>276.95093885384</ele>
        <time>2017-09-07T14:54:07Z</time>
      </trkpt>
      <trkpt lat="44.32557" lon="1.39714">
        <ele>277.07666755054</ele>
        <time>2017-09-07T14:54:13Z</time>
      </trkpt>
      <trkpt lat="44.32564" lon="1.3971">
        <ele>276.70115499397</ele>
        <time>2017-09-07T14:54:22Z</time>
      </trkpt>
      <trkpt lat="44.32572" lon="1.39705">
        <ele>276.6466843085</ele>
        <time>2017-09-07T14:54:29Z</time>
      </trkpt>
      <trkpt lat="44.3258" lon="1.397">
        <ele>276.91053875417</ele>
        <time>2017-09-07T14:54:37Z</time>
      </trkpt>
      <trkpt lat="44.32589" lon="1.39695">
        <ele>277.4071830073</ele>
        <time>2017-09-07T14:54:44Z</time>
      </trkpt>
      <trkpt lat="44.32597" lon="1.39692">
        <ele>277.57840254959</ele>
        <time>2017-09-07T14:54:50Z</time>
      </trkpt>
      <trkpt lat="44.32605" lon="1.39688">
        <ele>277.39935768029</ele>
        <time>2017-09-07T14:54:57Z</time>
      </trkpt>
      <trkpt lat="44.32612" lon="1.39686">
        <ele>277.58971346953</ele>
        <time>2017-09-07T14:55:04Z</time>
      </trkpt>
      <trkpt lat="44.3262" lon="1.39684">
        <ele>277.75281453174</ele>
        <time>2017-09-07T14:55:10Z</time>
      </trkpt>
      <trkpt lat="44.32628" lon="1.39681">
        <ele>277.92792270022</ele>
        <time>2017-09-07T14:55:17Z</time>
      </trkpt>
      <trkpt lat="44.32636" lon="1.39675">
        <ele>278.68548154402</ele>
        <time>2017-09-07T14:55:27Z</time>
      </trkpt>
      <trkpt lat="44.32645" lon="1.39674">
        <ele>279.73522857839</ele>
        <time>2017-09-07T14:55:37Z</time>
      </trkpt>
      <trkpt lat="44.32654" lon="1.39672">
        <ele>281.07447198312</ele>
        <time>2017-09-07T14:55:48Z</time>
      </trkpt>
      <trkpt lat="44.32661" lon="1.39669">
        <ele>281.8329560517</ele>
        <time>2017-09-07T14:55:53Z</time>
      </trkpt>
      <trkpt lat="44.32669" lon="1.39663">
        <ele>282.5733737903</ele>
        <time>2017-09-07T14:56:01Z</time>
      </trkpt>
      <trkpt lat="44.32676" lon="1.39656">
        <ele>283.12375311641</ele>
        <time>2017-09-07T14:56:10Z</time>
      </trkpt>
      <trkpt lat="44.32683" lon="1.3965">
        <ele>283.52494485587</ele>
        <time>2017-09-07T14:56:17Z</time>
      </trkpt>
      <trkpt lat="44.3269" lon="1.39658">
        <ele>284.36149837874</ele>
        <time>2017-09-07T14:56:29Z</time>
      </trkpt>
      <trkpt lat="44.3269" lon="1.39668">
        <ele>284.71423249108</ele>
        <time>2017-09-07T14:56:35Z</time>
      </trkpt>
      <trkpt lat="44.3269" lon="1.39681">
        <ele>284.93296996255</ele>
        <time>2017-09-07T14:56:41Z</time>
      </trkpt>
      <trkpt lat="44.3269" lon="1.39692">
        <ele>285.16477330031</ele>
        <time>2017-09-07T14:56:50Z</time>
      </trkpt>
      <trkpt lat="44.32693" lon="1.39704">
        <ele>284.8280345654</ele>
        <time>2017-09-07T14:56:58Z</time>
      </trkpt>
      <trkpt lat="44.32694" lon="1.39715">
        <ele>284.55257526469</ele>
        <time>2017-09-07T14:57:05Z</time>
      </trkpt>
      <trkpt lat="44.32696" lon="1.39727">
        <ele>283.90975289949</ele>
        <time>2017-09-07T14:57:14Z</time>
      </trkpt>
      <trkpt lat="44.32696" lon="1.39739">
        <ele>283.33585385196</ele>
        <time>2017-09-07T14:57:23Z</time>
      </trkpt>
      <trkpt lat="44.32698" lon="1.39751">
        <ele>282.94454578402</ele>
        <time>2017-09-07T14:57:30Z</time>
      </trkpt>
      <trkpt lat="44.32699" lon="1.39763">
        <ele>282.82958040647</ele>
        <time>2017-09-07T14:57:37Z</time>
      </trkpt>
      <trkpt lat="44.32701" lon="1.39774">
        <ele>282.57215159543</ele>
        <time>2017-09-07T14:57:44Z</time>
      </trkpt>
      <trkpt lat="44.32702" lon="1.39786">
        <ele>281.94854076005</ele>
        <time>2017-09-07T14:57:51Z</time>
      </trkpt>
      <trkpt lat="44.32703" lon="1.39798">
        <ele>281.32309853697</ele>
        <time>2017-09-07T14:58:00Z</time>
      </trkpt>
      <trkpt lat="44.32704" lon="1.3981">
        <ele>280.75234002569</ele>
        <time>2017-09-07T14:58:08Z</time>
      </trkpt>
      <trkpt lat="44.32705" lon="1.39821">
        <ele>280.2419935119</ele>
        <time>2017-09-07T14:58:15Z</time>
      </trkpt>
      <trkpt lat="44.32707" lon="1.39833">
        <ele>279.80396221877</ele>
        <time>2017-09-07T14:58:23Z</time>
      </trkpt>
      <trkpt lat="44.32709" lon="1.39842">
        <ele>279.26023370291</ele>
        <time>2017-09-07T14:58:28Z</time>
      </trkpt>
      <trkpt lat="44.32708" lon="1.39854">
        <ele>278.30754017372</ele>
        <time>2017-09-07T14:58:36Z</time>
      </trkpt>
      <trkpt lat="44.32708" lon="1.39866">
        <ele>277.42345356278</ele>
        <time>2017-09-07T14:58:46Z</time>
      </trkpt>
      <trkpt lat="44.32708" lon="1.39873">
        <ele>273.09992717232</ele>
        <time>2017-09-07T14:59:33Z</time>
      </trkpt>
      <trkpt lat="44.32708" lon="1.39873">
        <ele>273.09992717232</ele>
        <time>2017-09-07T14:59:33Z</time>
      </trkpt>
    </trkseg>
  </trk>
</gpx>